<?xml version="1.0" encoding="UTF-8" standalone="no" ?>
<gpx xmlns="http://www.topografix.com/GPX/1/1" xmlns:xsi="http://www.w3.org/2001/XMLSchema-instance" xsi:schemaLocation="http://www.topografix.com/GPX/1/1 http://www.topografix.com/GPX/1/1/gpx.xsd" version="1.1" creator="VisuGPX - https://www.visugpx.com">
  <metadata>
    <name>ormes</name>
    <desc><![CDATA[boucle st ay-beaugency]]></desc>
  </metadata>
  <trk>
    <name><![CDATA[ormes]]></name>
    <trkseg>
      <trkpt lat="47.85821" lon="1.75359">
        <ele>56.916</ele>
        <time>2011-11-20T07:54:58Z</time>
      </trkpt>
      <trkpt lat="47.85821" lon="1.75359">
        <ele>56.916</ele>
        <time>2011-11-20T07:54:59Z</time>
      </trkpt>
      <trkpt lat="47.85822" lon="1.75358">
        <ele>60.392</ele>
        <time>2011-11-20T07:55:04Z</time>
      </trkpt>
      <trkpt lat="47.85822" lon="1.75358">
        <ele>63.425</ele>
        <time>2011-11-20T07:55:08Z</time>
      </trkpt>
      <trkpt lat="47.85822" lon="1.75358">
        <ele>67.339</ele>
        <time>2011-11-20T07:55:13Z</time>
      </trkpt>
      <trkpt lat="47.85821" lon="1.75358">
        <ele>70.495</ele>
        <time>2011-11-20T07:55:19Z</time>
      </trkpt>
      <trkpt lat="47.85821" lon="1.75358">
        <ele>73.718</ele>
        <time>2011-11-20T07:55:27Z</time>
      </trkpt>
      <trkpt lat="47.85822" lon="1.75359">
        <ele>76.792</ele>
        <time>2011-11-20T07:55:37Z</time>
      </trkpt>
      <trkpt lat="47.85822" lon="1.75359">
        <ele>79.85</ele>
        <time>2011-11-20T07:55:50Z</time>
      </trkpt>
      <trkpt lat="47.85822" lon="1.75359">
        <ele>82.913</ele>
        <time>2011-11-20T07:56:16Z</time>
      </trkpt>
      <trkpt lat="47.85822" lon="1.75359">
        <ele>81.509</ele>
        <time>2011-11-20T07:59:42Z</time>
      </trkpt>
      <trkpt lat="47.85822" lon="1.75359">
        <ele>83.895</ele>
        <time>2011-11-20T07:59:44Z</time>
      </trkpt>
      <trkpt lat="47.85821" lon="1.75358">
        <ele>83.248</ele>
        <time>2011-11-20T08:00:33Z</time>
      </trkpt>
      <trkpt lat="47.85821" lon="1.75359">
        <ele>83.745</ele>
        <time>2011-11-20T08:01:31Z</time>
      </trkpt>
      <trkpt lat="47.85821" lon="1.75362">
        <ele>83.245</ele>
        <time>2011-11-20T08:07:04Z</time>
      </trkpt>
      <trkpt lat="47.8582" lon="1.75363">
        <ele>82.933</ele>
        <time>2011-11-20T08:08:38Z</time>
      </trkpt>
      <trkpt lat="47.85817" lon="1.75363">
        <ele>85.097</ele>
        <time>2011-11-20T08:14:28Z</time>
      </trkpt>
      <trkpt lat="47.85816" lon="1.75363">
        <ele>84.843</ele>
        <time>2011-11-20T08:14:30Z</time>
      </trkpt>
      <trkpt lat="47.85813" lon="1.75373">
        <ele>85.107</ele>
        <time>2011-11-20T08:14:35Z</time>
      </trkpt>
      <trkpt lat="47.85809" lon="1.75423">
        <ele>85.58</ele>
        <time>2011-11-20T08:14:49Z</time>
      </trkpt>
      <trkpt lat="47.85803" lon="1.75434">
        <ele>85.553</ele>
        <time>2011-11-20T08:14:55Z</time>
      </trkpt>
      <trkpt lat="47.85779" lon="1.75453">
        <ele>82.459</ele>
        <time>2011-11-20T08:15:06Z</time>
      </trkpt>
      <trkpt lat="47.85763" lon="1.75464">
        <ele>79.179</ele>
        <time>2011-11-20T08:15:16Z</time>
      </trkpt>
      <trkpt lat="47.85756" lon="1.75456">
        <ele>77.995</ele>
        <time>2011-11-20T08:15:20Z</time>
      </trkpt>
      <trkpt lat="47.85738" lon="1.75407">
        <ele>76.795</ele>
        <time>2011-11-20T08:15:37Z</time>
      </trkpt>
      <trkpt lat="47.85738" lon="1.75405">
        <ele>77.203</ele>
        <time>2011-11-20T08:16:00Z</time>
      </trkpt>
      <trkpt lat="47.85727" lon="1.75373">
        <ele>77.346</ele>
        <time>2011-11-20T08:16:18Z</time>
      </trkpt>
      <trkpt lat="47.85686" lon="1.7528">
        <ele>76.746</ele>
        <time>2011-11-20T08:16:38Z</time>
      </trkpt>
      <trkpt lat="47.85676" lon="1.75264">
        <ele>75.8</ele>
        <time>2011-11-20T08:16:41Z</time>
      </trkpt>
      <trkpt lat="47.85668" lon="1.75236">
        <ele>74.831</ele>
        <time>2011-11-20T08:16:45Z</time>
      </trkpt>
      <trkpt lat="47.85653" lon="1.75169">
        <ele>74.551</ele>
        <time>2011-11-20T08:16:57Z</time>
      </trkpt>
      <trkpt lat="47.85642" lon="1.75117">
        <ele>75.404</ele>
        <time>2011-11-20T08:17:06Z</time>
      </trkpt>
      <trkpt lat="47.85631" lon="1.75069">
        <ele>74.889</ele>
        <time>2011-11-20T08:17:14Z</time>
      </trkpt>
      <trkpt lat="47.85614" lon="1.74997">
        <ele>74.629</ele>
        <time>2011-11-20T08:17:25Z</time>
      </trkpt>
      <trkpt lat="47.85605" lon="1.74997">
        <ele>75.226</ele>
        <time>2011-11-20T08:17:29Z</time>
      </trkpt>
      <trkpt lat="47.85556" lon="1.75057">
        <ele>75.276</ele>
        <time>2011-11-20T08:17:45Z</time>
      </trkpt>
      <trkpt lat="47.85514" lon="1.75106">
        <ele>75.187</ele>
        <time>2011-11-20T08:17:59Z</time>
      </trkpt>
      <trkpt lat="47.85507" lon="1.75112">
        <ele>74.706</ele>
        <time>2011-11-20T08:18:03Z</time>
      </trkpt>
      <trkpt lat="47.85499" lon="1.75096">
        <ele>75.055</ele>
        <time>2011-11-20T08:18:12Z</time>
      </trkpt>
      <trkpt lat="47.85454" lon="1.75047">
        <ele>75.52</ele>
        <time>2011-11-20T08:18:29Z</time>
      </trkpt>
      <trkpt lat="47.85429" lon="1.74971">
        <ele>74.782</ele>
        <time>2011-11-20T08:18:41Z</time>
      </trkpt>
      <trkpt lat="47.85377" lon="1.74829">
        <ele>75.113</ele>
        <time>2011-11-20T08:19:07Z</time>
      </trkpt>
      <trkpt lat="47.85338" lon="1.74708">
        <ele>75.191</ele>
        <time>2011-11-20T08:19:29Z</time>
      </trkpt>
      <trkpt lat="47.85315" lon="1.74707">
        <ele>73.258</ele>
        <time>2011-11-20T08:19:37Z</time>
      </trkpt>
      <trkpt lat="47.85306" lon="1.74717">
        <ele>73.303</ele>
        <time>2011-11-20T08:19:40Z</time>
      </trkpt>
      <trkpt lat="47.85297" lon="1.74734">
        <ele>73.581</ele>
        <time>2011-11-20T08:19:45Z</time>
      </trkpt>
      <trkpt lat="47.85283" lon="1.74728">
        <ele>73.945</ele>
        <time>2011-11-20T08:19:53Z</time>
      </trkpt>
      <trkpt lat="47.85272" lon="1.7471">
        <ele>73.462</ele>
        <time>2011-11-20T08:19:58Z</time>
      </trkpt>
      <trkpt lat="47.85269" lon="1.74676">
        <ele>74.561</ele>
        <time>2011-11-20T08:20:06Z</time>
      </trkpt>
      <trkpt lat="47.85259" lon="1.74669">
        <ele>74.495</ele>
        <time>2011-11-20T08:20:09Z</time>
      </trkpt>
      <trkpt lat="47.85247" lon="1.74671">
        <ele>73.925</ele>
        <time>2011-11-20T08:20:11Z</time>
      </trkpt>
      <trkpt lat="47.8523" lon="1.74632">
        <ele>74.564</ele>
        <time>2011-11-20T08:20:19Z</time>
      </trkpt>
      <trkpt lat="47.85232" lon="1.74617">
        <ele>74.258</ele>
        <time>2011-11-20T08:20:21Z</time>
      </trkpt>
      <trkpt lat="47.85228" lon="1.74575">
        <ele>73.472</ele>
        <time>2011-11-20T08:20:29Z</time>
      </trkpt>
      <trkpt lat="47.85231" lon="1.74561">
        <ele>73.741</ele>
        <time>2011-11-20T08:20:31Z</time>
      </trkpt>
      <trkpt lat="47.85236" lon="1.74547">
        <ele>73.667</ele>
        <time>2011-11-20T08:20:33Z</time>
      </trkpt>
      <trkpt lat="47.85237" lon="1.74521">
        <ele>73.019</ele>
        <time>2011-11-20T08:20:37Z</time>
      </trkpt>
      <trkpt lat="47.85202" lon="1.74416">
        <ele>73.369</ele>
        <time>2011-11-20T08:20:55Z</time>
      </trkpt>
      <trkpt lat="47.85159" lon="1.7429">
        <ele>73.809</ele>
        <time>2011-11-20T08:21:17Z</time>
      </trkpt>
      <trkpt lat="47.85118" lon="1.74172">
        <ele>73.509</ele>
        <time>2011-11-20T08:21:38Z</time>
      </trkpt>
      <trkpt lat="47.8511" lon="1.74151">
        <ele>73.199</ele>
        <time>2011-11-20T08:21:42Z</time>
      </trkpt>
      <trkpt lat="47.8512" lon="1.74094">
        <ele>74.309</ele>
        <time>2011-11-20T08:21:53Z</time>
      </trkpt>
      <trkpt lat="47.85114" lon="1.7408">
        <ele>74.215</ele>
        <time>2011-11-20T08:21:57Z</time>
      </trkpt>
      <trkpt lat="47.85082" lon="1.7398">
        <ele>74.544</ele>
        <time>2011-11-20T08:22:16Z</time>
      </trkpt>
      <trkpt lat="47.85052" lon="1.73881">
        <ele>74.697</ele>
        <time>2011-11-20T08:22:33Z</time>
      </trkpt>
      <trkpt lat="47.8502" lon="1.73772">
        <ele>74.367</ele>
        <time>2011-11-20T08:22:51Z</time>
      </trkpt>
      <trkpt lat="47.85002" lon="1.73709">
        <ele>74.408</ele>
        <time>2011-11-20T08:23:01Z</time>
      </trkpt>
      <trkpt lat="47.84997" lon="1.73689">
        <ele>73.87</ele>
        <time>2011-11-20T08:23:04Z</time>
      </trkpt>
      <trkpt lat="47.84992" lon="1.7367">
        <ele>74.212</ele>
        <time>2011-11-20T08:23:07Z</time>
      </trkpt>
      <trkpt lat="47.84973" lon="1.73612">
        <ele>74.468</ele>
        <time>2011-11-20T08:23:17Z</time>
      </trkpt>
      <trkpt lat="47.84967" lon="1.73586">
        <ele>74.775</ele>
        <time>2011-11-20T08:23:23Z</time>
      </trkpt>
      <trkpt lat="47.84961" lon="1.73549">
        <ele>77.178</ele>
        <time>2011-11-20T08:23:29Z</time>
      </trkpt>
      <trkpt lat="47.84959" lon="1.7354">
        <ele>77.607</ele>
        <time>2011-11-20T08:23:31Z</time>
      </trkpt>
      <trkpt lat="47.84908" lon="1.73458">
        <ele>79.304</ele>
        <time>2011-11-20T08:23:47Z</time>
      </trkpt>
      <trkpt lat="47.849" lon="1.73441">
        <ele>79.624</ele>
        <time>2011-11-20T08:23:50Z</time>
      </trkpt>
      <trkpt lat="47.84885" lon="1.73411">
        <ele>79.369</ele>
        <time>2011-11-20T08:23:55Z</time>
      </trkpt>
      <trkpt lat="47.84877" lon="1.73394">
        <ele>80.919</ele>
        <time>2011-11-20T08:23:59Z</time>
      </trkpt>
      <trkpt lat="47.84866" lon="1.73377">
        <ele>81.023</ele>
        <time>2011-11-20T08:24:03Z</time>
      </trkpt>
      <trkpt lat="47.8481" lon="1.73291">
        <ele>79.538</ele>
        <time>2011-11-20T08:24:19Z</time>
      </trkpt>
      <trkpt lat="47.84799" lon="1.73273">
        <ele>79.246</ele>
        <time>2011-11-20T08:24:23Z</time>
      </trkpt>
      <trkpt lat="47.84779" lon="1.7324">
        <ele>78.616</ele>
        <time>2011-11-20T08:24:29Z</time>
      </trkpt>
      <trkpt lat="47.84746" lon="1.73184">
        <ele>78.105</ele>
        <time>2011-11-20T08:24:40Z</time>
      </trkpt>
      <trkpt lat="47.84718" lon="1.7314">
        <ele>78.705</ele>
        <time>2011-11-20T08:24:50Z</time>
      </trkpt>
      <trkpt lat="47.84686" lon="1.73081">
        <ele>79.03</ele>
        <time>2011-11-20T08:25:00Z</time>
      </trkpt>
      <trkpt lat="47.84659" lon="1.73033">
        <ele>78.327</ele>
        <time>2011-11-20T08:25:08Z</time>
      </trkpt>
      <trkpt lat="47.84643" lon="1.73001">
        <ele>77.836</ele>
        <time>2011-11-20T08:25:14Z</time>
      </trkpt>
      <trkpt lat="47.84577" lon="1.72891">
        <ele>77.828</ele>
        <time>2011-11-20T08:25:33Z</time>
      </trkpt>
      <trkpt lat="47.84514" lon="1.72807">
        <ele>78.021</ele>
        <time>2011-11-20T08:25:49Z</time>
      </trkpt>
      <trkpt lat="47.84505" lon="1.72799">
        <ele>78.127</ele>
        <time>2011-11-20T08:25:52Z</time>
      </trkpt>
      <trkpt lat="47.84496" lon="1.72791">
        <ele>78.38</ele>
        <time>2011-11-20T08:25:55Z</time>
      </trkpt>
      <trkpt lat="47.84482" lon="1.72774">
        <ele>78.676</ele>
        <time>2011-11-20T08:25:59Z</time>
      </trkpt>
      <trkpt lat="47.8445" lon="1.72713">
        <ele>78.636</ele>
        <time>2011-11-20T08:26:14Z</time>
      </trkpt>
      <trkpt lat="47.84435" lon="1.72693">
        <ele>78.771</ele>
        <time>2011-11-20T08:26:20Z</time>
      </trkpt>
      <trkpt lat="47.84408" lon="1.72657">
        <ele>76.496</ele>
        <time>2011-11-20T08:26:28Z</time>
      </trkpt>
      <trkpt lat="47.84396" lon="1.72641">
        <ele>76.263</ele>
        <time>2011-11-20T08:26:31Z</time>
      </trkpt>
      <trkpt lat="47.84373" lon="1.72611">
        <ele>75.476</ele>
        <time>2011-11-20T08:26:38Z</time>
      </trkpt>
      <trkpt lat="47.84361" lon="1.72598">
        <ele>75.223</ele>
        <time>2011-11-20T08:26:41Z</time>
      </trkpt>
      <trkpt lat="47.84345" lon="1.7258">
        <ele>75.667</ele>
        <time>2011-11-20T08:26:45Z</time>
      </trkpt>
      <trkpt lat="47.84334" lon="1.72565">
        <ele>76.891</ele>
        <time>2011-11-20T08:26:48Z</time>
      </trkpt>
      <trkpt lat="47.84293" lon="1.72497">
        <ele>78.869</ele>
        <time>2011-11-20T08:27:03Z</time>
      </trkpt>
      <trkpt lat="47.84287" lon="1.72486">
        <ele>78.742</ele>
        <time>2011-11-20T08:27:05Z</time>
      </trkpt>
      <trkpt lat="47.84267" lon="1.72445">
        <ele>78.971</ele>
        <time>2011-11-20T08:27:12Z</time>
      </trkpt>
      <trkpt lat="47.8425" lon="1.72417">
        <ele>78.402</ele>
        <time>2011-11-20T08:27:18Z</time>
      </trkpt>
      <trkpt lat="47.84223" lon="1.72384">
        <ele>78.951</ele>
        <time>2011-11-20T08:27:27Z</time>
      </trkpt>
      <trkpt lat="47.84191" lon="1.72358">
        <ele>78.539</ele>
        <time>2011-11-20T08:27:34Z</time>
      </trkpt>
      <trkpt lat="47.84165" lon="1.72323">
        <ele>79.783</ele>
        <time>2011-11-20T08:27:41Z</time>
      </trkpt>
      <trkpt lat="47.8412" lon="1.7227">
        <ele>79.455</ele>
        <time>2011-11-20T08:27:54Z</time>
      </trkpt>
      <trkpt lat="47.84091" lon="1.72234">
        <ele>79.615</ele>
        <time>2011-11-20T08:28:01Z</time>
      </trkpt>
      <trkpt lat="47.84026" lon="1.72145">
        <ele>78.603</ele>
        <time>2011-11-20T08:28:16Z</time>
      </trkpt>
      <trkpt lat="47.84022" lon="1.72139">
        <ele>78.57</ele>
        <time>2011-11-20T08:28:17Z</time>
      </trkpt>
      <trkpt lat="47.83951" lon="1.72016">
        <ele>77.972</ele>
        <time>2011-11-20T08:28:36Z</time>
      </trkpt>
      <trkpt lat="47.8389" lon="1.71914">
        <ele>77.897</ele>
        <time>2011-11-20T08:28:54Z</time>
      </trkpt>
      <trkpt lat="47.83854" lon="1.71853">
        <ele>78.482</ele>
        <time>2011-11-20T08:29:05Z</time>
      </trkpt>
      <trkpt lat="47.83837" lon="1.71828">
        <ele>78.981</ele>
        <time>2011-11-20T08:29:10Z</time>
      </trkpt>
      <trkpt lat="47.83829" lon="1.71815">
        <ele>79.212</ele>
        <time>2011-11-20T08:29:13Z</time>
      </trkpt>
      <trkpt lat="47.83806" lon="1.71787">
        <ele>78.164</ele>
        <time>2011-11-20T08:29:25Z</time>
      </trkpt>
      <trkpt lat="47.83799" lon="1.71777">
        <ele>78.021</ele>
        <time>2011-11-20T08:29:30Z</time>
      </trkpt>
      <trkpt lat="47.83797" lon="1.71775">
        <ele>78.543</ele>
        <time>2011-11-20T08:29:41Z</time>
      </trkpt>
      <trkpt lat="47.83797" lon="1.71775">
        <ele>78.393</ele>
        <time>2011-11-20T08:29:51Z</time>
      </trkpt>
      <trkpt lat="47.83789" lon="1.71766">
        <ele>78.065</ele>
        <time>2011-11-20T08:29:55Z</time>
      </trkpt>
      <trkpt lat="47.83771" lon="1.71738">
        <ele>77.961</ele>
        <time>2011-11-20T08:30:05Z</time>
      </trkpt>
      <trkpt lat="47.8372" lon="1.71666">
        <ele>79.761</ele>
        <time>2011-11-20T08:30:21Z</time>
      </trkpt>
      <trkpt lat="47.83694" lon="1.71621">
        <ele>80.798</ele>
        <time>2011-11-20T08:30:29Z</time>
      </trkpt>
      <trkpt lat="47.83669" lon="1.7157">
        <ele>82.118</ele>
        <time>2011-11-20T08:30:40Z</time>
      </trkpt>
      <trkpt lat="47.83652" lon="1.71547">
        <ele>82.233</ele>
        <time>2011-11-20T08:30:45Z</time>
      </trkpt>
      <trkpt lat="47.83601" lon="1.71474">
        <ele>82.259</ele>
        <time>2011-11-20T08:31:00Z</time>
      </trkpt>
      <trkpt lat="47.83564" lon="1.71421">
        <ele>81.887</ele>
        <time>2011-11-20T08:31:11Z</time>
      </trkpt>
      <trkpt lat="47.8354" lon="1.71389">
        <ele>82.156</ele>
        <time>2011-11-20T08:31:18Z</time>
      </trkpt>
      <trkpt lat="47.83484" lon="1.71302">
        <ele>82.866</ele>
        <time>2011-11-20T08:31:37Z</time>
      </trkpt>
      <trkpt lat="47.83457" lon="1.71261">
        <ele>82.026</ele>
        <time>2011-11-20T08:31:45Z</time>
      </trkpt>
      <trkpt lat="47.83437" lon="1.71217">
        <ele>81.941</ele>
        <time>2011-11-20T08:31:57Z</time>
      </trkpt>
      <trkpt lat="47.83432" lon="1.7121">
        <ele>82.809</ele>
        <time>2011-11-20T08:32:03Z</time>
      </trkpt>
      <trkpt lat="47.8342" lon="1.71195">
        <ele>83.197</ele>
        <time>2011-11-20T08:32:14Z</time>
      </trkpt>
      <trkpt lat="47.83416" lon="1.71191">
        <ele>82.088</ele>
        <time>2011-11-20T08:32:15Z</time>
      </trkpt>
      <trkpt lat="47.83376" lon="1.71148">
        <ele>81.513</ele>
        <time>2011-11-20T08:32:24Z</time>
      </trkpt>
      <trkpt lat="47.83352" lon="1.71115">
        <ele>80.217</ele>
        <time>2011-11-20T08:32:37Z</time>
      </trkpt>
      <trkpt lat="47.83342" lon="1.711">
        <ele>79.916</ele>
        <time>2011-11-20T08:32:54Z</time>
      </trkpt>
      <trkpt lat="47.83315" lon="1.71064">
        <ele>80.742</ele>
        <time>2011-11-20T08:33:08Z</time>
      </trkpt>
      <trkpt lat="47.83251" lon="1.70967">
        <ele>81.589</ele>
        <time>2011-11-20T08:33:28Z</time>
      </trkpt>
      <trkpt lat="47.83211" lon="1.70912">
        <ele>84.173</ele>
        <time>2011-11-20T08:33:44Z</time>
      </trkpt>
      <trkpt lat="47.83175" lon="1.70877">
        <ele>84.729</ele>
        <time>2011-11-20T08:33:55Z</time>
      </trkpt>
      <trkpt lat="47.83165" lon="1.70862">
        <ele>84.794</ele>
        <time>2011-11-20T08:33:58Z</time>
      </trkpt>
      <trkpt lat="47.83123" lon="1.70809">
        <ele>84.501</ele>
        <time>2011-11-20T08:34:09Z</time>
      </trkpt>
      <trkpt lat="47.83093" lon="1.70773">
        <ele>82.953</ele>
        <time>2011-11-20T08:34:16Z</time>
      </trkpt>
      <trkpt lat="47.83076" lon="1.70756">
        <ele>82.658</ele>
        <time>2011-11-20T08:34:20Z</time>
      </trkpt>
      <trkpt lat="47.83065" lon="1.70745">
        <ele>82.936</ele>
        <time>2011-11-20T08:34:23Z</time>
      </trkpt>
      <trkpt lat="47.83054" lon="1.70736">
        <ele>82.633</ele>
        <time>2011-11-20T08:34:26Z</time>
      </trkpt>
      <trkpt lat="47.83029" lon="1.70712">
        <ele>83.465</ele>
        <time>2011-11-20T08:34:36Z</time>
      </trkpt>
      <trkpt lat="47.83028" lon="1.7071">
        <ele>83.4</ele>
        <time>2011-11-20T08:34:49Z</time>
      </trkpt>
      <trkpt lat="47.83028" lon="1.7071">
        <ele>83.271</ele>
        <time>2011-11-20T08:35:07Z</time>
      </trkpt>
      <trkpt lat="47.83011" lon="1.70691">
        <ele>83.119</ele>
        <time>2011-11-20T08:35:33Z</time>
      </trkpt>
      <trkpt lat="47.82986" lon="1.70659">
        <ele>83.74</ele>
        <time>2011-11-20T08:35:47Z</time>
      </trkpt>
      <trkpt lat="47.82955" lon="1.70618">
        <ele>83.266</ele>
        <time>2011-11-20T08:35:58Z</time>
      </trkpt>
      <trkpt lat="47.82924" lon="1.70582">
        <ele>82.578</ele>
        <time>2011-11-20T08:36:06Z</time>
      </trkpt>
      <trkpt lat="47.82871" lon="1.70525">
        <ele>82.651</ele>
        <time>2011-11-20T08:36:22Z</time>
      </trkpt>
      <trkpt lat="47.82846" lon="1.70495">
        <ele>81.892</ele>
        <time>2011-11-20T08:36:34Z</time>
      </trkpt>
      <trkpt lat="47.82842" lon="1.7049">
        <ele>81.111</ele>
        <time>2011-11-20T08:36:40Z</time>
      </trkpt>
      <trkpt lat="47.82827" lon="1.70473">
        <ele>80.568</ele>
        <time>2011-11-20T08:36:50Z</time>
      </trkpt>
      <trkpt lat="47.82808" lon="1.70449">
        <ele>80.276</ele>
        <time>2011-11-20T08:36:54Z</time>
      </trkpt>
      <trkpt lat="47.82773" lon="1.7041">
        <ele>79.476</ele>
        <time>2011-11-20T08:37:02Z</time>
      </trkpt>
      <trkpt lat="47.82744" lon="1.70389">
        <ele>78.606</ele>
        <time>2011-11-20T08:37:08Z</time>
      </trkpt>
      <trkpt lat="47.82706" lon="1.7033">
        <ele>79.084</ele>
        <time>2011-11-20T08:37:20Z</time>
      </trkpt>
      <trkpt lat="47.82688" lon="1.70279">
        <ele>79.59</ele>
        <time>2011-11-20T08:37:30Z</time>
      </trkpt>
      <trkpt lat="47.82668" lon="1.7024">
        <ele>79.143</ele>
        <time>2011-11-20T08:37:39Z</time>
      </trkpt>
      <trkpt lat="47.82659" lon="1.7022">
        <ele>77.893</ele>
        <time>2011-11-20T08:37:44Z</time>
      </trkpt>
      <trkpt lat="47.82616" lon="1.70234">
        <ele>76.901</ele>
        <time>2011-11-20T08:37:49Z</time>
      </trkpt>
      <trkpt lat="47.82566" lon="1.70147">
        <ele>77.133</ele>
        <time>2011-11-20T08:38:05Z</time>
      </trkpt>
      <trkpt lat="47.82497" lon="1.70073">
        <ele>77.018</ele>
        <time>2011-11-20T08:38:23Z</time>
      </trkpt>
      <trkpt lat="47.82458" lon="1.70047">
        <ele>77.046</ele>
        <time>2011-11-20T08:38:33Z</time>
      </trkpt>
      <trkpt lat="47.82403" lon="1.70028">
        <ele>76.746</ele>
        <time>2011-11-20T08:38:46Z</time>
      </trkpt>
      <trkpt lat="47.82362" lon="1.70026">
        <ele>75.369</ele>
        <time>2011-11-20T08:38:57Z</time>
      </trkpt>
      <trkpt lat="47.82342" lon="1.70024">
        <ele>75.329</ele>
        <time>2011-11-20T08:39:07Z</time>
      </trkpt>
      <trkpt lat="47.82339" lon="1.7002">
        <ele>76.778</ele>
        <time>2011-11-20T08:39:13Z</time>
      </trkpt>
      <trkpt lat="47.82329" lon="1.70008">
        <ele>78.038</ele>
        <time>2011-11-20T08:39:18Z</time>
      </trkpt>
      <trkpt lat="47.82284" lon="1.69953">
        <ele>77.964</ele>
        <time>2011-11-20T08:39:32Z</time>
      </trkpt>
      <trkpt lat="47.82269" lon="1.69924">
        <ele>77.921</ele>
        <time>2011-11-20T08:39:37Z</time>
      </trkpt>
      <trkpt lat="47.82243" lon="1.69886">
        <ele>78.077</ele>
        <time>2011-11-20T08:39:45Z</time>
      </trkpt>
      <trkpt lat="47.82223" lon="1.69871">
        <ele>78.104</ele>
        <time>2011-11-20T08:39:50Z</time>
      </trkpt>
      <trkpt lat="47.82194" lon="1.69827">
        <ele>78.168</ele>
        <time>2011-11-20T08:40:01Z</time>
      </trkpt>
      <trkpt lat="47.8219" lon="1.69823">
        <ele>77.658</ele>
        <time>2011-11-20T08:40:04Z</time>
      </trkpt>
      <trkpt lat="47.82136" lon="1.6976">
        <ele>77.776</ele>
        <time>2011-11-20T08:40:18Z</time>
      </trkpt>
      <trkpt lat="47.82064" lon="1.69689">
        <ele>77.664</ele>
        <time>2011-11-20T08:40:34Z</time>
      </trkpt>
      <trkpt lat="47.81978" lon="1.69638">
        <ele>77.502</ele>
        <time>2011-11-20T08:40:50Z</time>
      </trkpt>
      <trkpt lat="47.81871" lon="1.6953">
        <ele>76.881</ele>
        <time>2011-11-20T08:41:12Z</time>
      </trkpt>
      <trkpt lat="47.81815" lon="1.69479">
        <ele>76.656</ele>
        <time>2011-11-20T08:41:28Z</time>
      </trkpt>
      <trkpt lat="47.81782" lon="1.69455">
        <ele>76.922</ele>
        <time>2011-11-20T08:41:42Z</time>
      </trkpt>
      <trkpt lat="47.81726" lon="1.69408">
        <ele>77.942</ele>
        <time>2011-11-20T08:42:00Z</time>
      </trkpt>
      <trkpt lat="47.81712" lon="1.69399">
        <ele>78.01</ele>
        <time>2011-11-20T08:42:04Z</time>
      </trkpt>
      <trkpt lat="47.81702" lon="1.69409">
        <ele>77.963</ele>
        <time>2011-11-20T08:42:07Z</time>
      </trkpt>
      <trkpt lat="47.816" lon="1.69415">
        <ele>77.888</ele>
        <time>2011-11-20T08:42:23Z</time>
      </trkpt>
      <trkpt lat="47.81586" lon="1.69407">
        <ele>78.239</ele>
        <time>2011-11-20T08:42:36Z</time>
      </trkpt>
      <trkpt lat="47.81523" lon="1.69371">
        <ele>78.725</ele>
        <time>2011-11-20T08:42:51Z</time>
      </trkpt>
      <trkpt lat="47.81518" lon="1.69369">
        <ele>78.01</ele>
        <time>2011-11-20T08:42:52Z</time>
      </trkpt>
      <trkpt lat="47.81473" lon="1.69343">
        <ele>77.629</ele>
        <time>2011-11-20T08:43:02Z</time>
      </trkpt>
      <trkpt lat="47.81412" lon="1.69311">
        <ele>78.106</ele>
        <time>2011-11-20T08:43:16Z</time>
      </trkpt>
      <trkpt lat="47.81325" lon="1.6927">
        <ele>77.884</ele>
        <time>2011-11-20T08:43:34Z</time>
      </trkpt>
      <trkpt lat="47.81305" lon="1.69259">
        <ele>77.778</ele>
        <time>2011-11-20T08:43:38Z</time>
      </trkpt>
      <trkpt lat="47.81292" lon="1.6925">
        <ele>77.677</ele>
        <time>2011-11-20T08:43:41Z</time>
      </trkpt>
      <trkpt lat="47.81293" lon="1.6925">
        <ele>77.886</ele>
        <time>2011-11-20T08:51:22Z</time>
      </trkpt>
      <trkpt lat="47.81302" lon="1.69212">
        <ele>77.599</ele>
        <time>2011-11-20T08:51:30Z</time>
      </trkpt>
      <trkpt lat="47.81314" lon="1.69105">
        <ele>77.745</ele>
        <time>2011-11-20T08:51:46Z</time>
      </trkpt>
      <trkpt lat="47.81319" lon="1.69089">
        <ele>77.831</ele>
        <time>2011-11-20T08:51:50Z</time>
      </trkpt>
      <trkpt lat="47.81331" lon="1.69089">
        <ele>77.611</ele>
        <time>2011-11-20T08:51:52Z</time>
      </trkpt>
      <trkpt lat="47.81376" lon="1.69042">
        <ele>76.856</ele>
        <time>2011-11-20T08:52:03Z</time>
      </trkpt>
      <trkpt lat="47.81413" lon="1.69005">
        <ele>77.142</ele>
        <time>2011-11-20T08:52:11Z</time>
      </trkpt>
      <trkpt lat="47.81471" lon="1.68921">
        <ele>77.265</ele>
        <time>2011-11-20T08:52:27Z</time>
      </trkpt>
      <trkpt lat="47.81499" lon="1.68883">
        <ele>76.907</ele>
        <time>2011-11-20T08:52:35Z</time>
      </trkpt>
      <trkpt lat="47.81548" lon="1.68816">
        <ele>77.483</ele>
        <time>2011-11-20T08:52:53Z</time>
      </trkpt>
      <trkpt lat="47.81558" lon="1.68802">
        <ele>77.621</ele>
        <time>2011-11-20T08:52:58Z</time>
      </trkpt>
      <trkpt lat="47.81556" lon="1.68789">
        <ele>78.1</ele>
        <time>2011-11-20T08:53:02Z</time>
      </trkpt>
      <trkpt lat="47.81475" lon="1.68677">
        <ele>77.612</ele>
        <time>2011-11-20T08:53:24Z</time>
      </trkpt>
      <trkpt lat="47.81387" lon="1.68539">
        <ele>78.357</ele>
        <time>2011-11-20T08:53:49Z</time>
      </trkpt>
      <trkpt lat="47.81289" lon="1.68445">
        <ele>78.572</ele>
        <time>2011-11-20T08:54:13Z</time>
      </trkpt>
      <trkpt lat="47.81183" lon="1.68385">
        <ele>78.276</ele>
        <time>2011-11-20T08:54:37Z</time>
      </trkpt>
      <trkpt lat="47.8104" lon="1.6834">
        <ele>79.56</ele>
        <time>2011-11-20T08:55:07Z</time>
      </trkpt>
      <trkpt lat="47.80893" lon="1.68331">
        <ele>79.312</ele>
        <time>2011-11-20T08:55:35Z</time>
      </trkpt>
      <trkpt lat="47.80748" lon="1.68328">
        <ele>79.48</ele>
        <time>2011-11-20T08:56:03Z</time>
      </trkpt>
      <trkpt lat="47.80641" lon="1.68347">
        <ele>79.392</ele>
        <time>2011-11-20T08:56:24Z</time>
      </trkpt>
      <trkpt lat="47.80511" lon="1.68383">
        <ele>79.612</ele>
        <time>2011-11-20T08:56:50Z</time>
      </trkpt>
      <trkpt lat="47.80376" lon="1.68426">
        <ele>79.666</ele>
        <time>2011-11-20T08:57:17Z</time>
      </trkpt>
      <trkpt lat="47.80296" lon="1.68479">
        <ele>80.289</ele>
        <time>2011-11-20T08:57:34Z</time>
      </trkpt>
      <trkpt lat="47.80184" lon="1.68549">
        <ele>79.116</ele>
        <time>2011-11-20T08:57:58Z</time>
      </trkpt>
      <trkpt lat="47.80143" lon="1.68572">
        <ele>79.065</ele>
        <time>2011-11-20T08:58:11Z</time>
      </trkpt>
      <trkpt lat="47.80091" lon="1.68576">
        <ele>79.371</ele>
        <time>2011-11-20T08:58:19Z</time>
      </trkpt>
      <trkpt lat="47.80021" lon="1.68515">
        <ele>78.389</ele>
        <time>2011-11-20T08:58:35Z</time>
      </trkpt>
      <trkpt lat="47.79942" lon="1.68442">
        <ele>77.983</ele>
        <time>2011-11-20T08:58:51Z</time>
      </trkpt>
      <trkpt lat="47.7988" lon="1.68396">
        <ele>77.982</ele>
        <time>2011-11-20T08:59:03Z</time>
      </trkpt>
      <trkpt lat="47.7983" lon="1.68369">
        <ele>77.448</ele>
        <time>2011-11-20T08:59:14Z</time>
      </trkpt>
      <trkpt lat="47.79831" lon="1.68332">
        <ele>77.599</ele>
        <time>2011-11-20T08:59:19Z</time>
      </trkpt>
      <trkpt lat="47.79832" lon="1.68289">
        <ele>77.521</ele>
        <time>2011-11-20T08:59:26Z</time>
      </trkpt>
      <trkpt lat="47.79824" lon="1.6827">
        <ele>77.219</ele>
        <time>2011-11-20T08:59:29Z</time>
      </trkpt>
      <trkpt lat="47.79807" lon="1.68242">
        <ele>77.171</ele>
        <time>2011-11-20T08:59:34Z</time>
      </trkpt>
      <trkpt lat="47.79791" lon="1.68225">
        <ele>77.375</ele>
        <time>2011-11-20T08:59:38Z</time>
      </trkpt>
      <trkpt lat="47.79774" lon="1.68193">
        <ele>77.155</ele>
        <time>2011-11-20T08:59:44Z</time>
      </trkpt>
      <trkpt lat="47.7974" lon="1.68107">
        <ele>77.687</ele>
        <time>2011-11-20T09:00:01Z</time>
      </trkpt>
      <trkpt lat="47.79717" lon="1.68055">
        <ele>78.167</ele>
        <time>2011-11-20T09:00:11Z</time>
      </trkpt>
      <trkpt lat="47.79715" lon="1.68031">
        <ele>78.312</ele>
        <time>2011-11-20T09:00:16Z</time>
      </trkpt>
      <trkpt lat="47.79705" lon="1.67983">
        <ele>78.167</ele>
        <time>2011-11-20T09:00:28Z</time>
      </trkpt>
      <trkpt lat="47.79695" lon="1.67956">
        <ele>78.638</ele>
        <time>2011-11-20T09:00:33Z</time>
      </trkpt>
      <trkpt lat="47.79683" lon="1.67926">
        <ele>77.87</ele>
        <time>2011-11-20T09:00:38Z</time>
      </trkpt>
      <trkpt lat="47.79658" lon="1.67859">
        <ele>77.235</ele>
        <time>2011-11-20T09:00:49Z</time>
      </trkpt>
      <trkpt lat="47.79622" lon="1.67749">
        <ele>77.653</ele>
        <time>2011-11-20T09:01:05Z</time>
      </trkpt>
      <trkpt lat="47.79612" lon="1.67652">
        <ele>77.653</ele>
        <time>2011-11-20T09:01:18Z</time>
      </trkpt>
      <trkpt lat="47.79606" lon="1.67559">
        <ele>77.84</ele>
        <time>2011-11-20T09:01:31Z</time>
      </trkpt>
      <trkpt lat="47.79571" lon="1.6743">
        <ele>77.818</ele>
        <time>2011-11-20T09:01:51Z</time>
      </trkpt>
      <trkpt lat="47.79526" lon="1.67318">
        <ele>77.694</ele>
        <time>2011-11-20T09:02:08Z</time>
      </trkpt>
      <trkpt lat="47.79502" lon="1.67146">
        <ele>77.667</ele>
        <time>2011-11-20T09:02:31Z</time>
      </trkpt>
      <trkpt lat="47.79479" lon="1.6701">
        <ele>77.594</ele>
        <time>2011-11-20T09:02:50Z</time>
      </trkpt>
      <trkpt lat="47.79454" lon="1.6686">
        <ele>77.174</ele>
        <time>2011-11-20T09:03:09Z</time>
      </trkpt>
      <trkpt lat="47.79413" lon="1.66749">
        <ele>77.513</ele>
        <time>2011-11-20T09:03:25Z</time>
      </trkpt>
      <trkpt lat="47.79379" lon="1.66655">
        <ele>77.686</ele>
        <time>2011-11-20T09:03:39Z</time>
      </trkpt>
      <trkpt lat="47.79374" lon="1.66635">
        <ele>77.732</ele>
        <time>2011-11-20T09:03:42Z</time>
      </trkpt>
      <trkpt lat="47.79367" lon="1.66616">
        <ele>77.602</ele>
        <time>2011-11-20T09:03:45Z</time>
      </trkpt>
      <trkpt lat="47.79338" lon="1.66533">
        <ele>77.334</ele>
        <time>2011-11-20T09:03:57Z</time>
      </trkpt>
      <trkpt lat="47.79334" lon="1.66518">
        <ele>77.112</ele>
        <time>2011-11-20T09:03:59Z</time>
      </trkpt>
      <trkpt lat="47.79302" lon="1.66407">
        <ele>77.731</ele>
        <time>2011-11-20T09:04:14Z</time>
      </trkpt>
      <trkpt lat="47.79282" lon="1.66369">
        <ele>77.501</ele>
        <time>2011-11-20T09:04:20Z</time>
      </trkpt>
      <trkpt lat="47.79252" lon="1.66303">
        <ele>78.17</ele>
        <time>2011-11-20T09:04:32Z</time>
      </trkpt>
      <trkpt lat="47.79245" lon="1.66291">
        <ele>77.71</ele>
        <time>2011-11-20T09:04:34Z</time>
      </trkpt>
      <trkpt lat="47.79231" lon="1.66257">
        <ele>77.666</ele>
        <time>2011-11-20T09:04:39Z</time>
      </trkpt>
      <trkpt lat="47.79206" lon="1.66182">
        <ele>77.501</ele>
        <time>2011-11-20T09:04:50Z</time>
      </trkpt>
      <trkpt lat="47.79178" lon="1.66111">
        <ele>77.372</ele>
        <time>2011-11-20T09:05:01Z</time>
      </trkpt>
      <trkpt lat="47.79166" lon="1.66088">
        <ele>77.159</ele>
        <time>2011-11-20T09:05:05Z</time>
      </trkpt>
      <trkpt lat="47.79162" lon="1.66035">
        <ele>77.338</ele>
        <time>2011-11-20T09:05:12Z</time>
      </trkpt>
      <trkpt lat="47.7914" lon="1.65989">
        <ele>77.627</ele>
        <time>2011-11-20T09:05:21Z</time>
      </trkpt>
      <trkpt lat="47.79127" lon="1.65978">
        <ele>77.33</ele>
        <time>2011-11-20T09:05:24Z</time>
      </trkpt>
      <trkpt lat="47.79101" lon="1.65953">
        <ele>77.121</ele>
        <time>2011-11-20T09:05:30Z</time>
      </trkpt>
      <trkpt lat="47.7909" lon="1.6592">
        <ele>77.403</ele>
        <time>2011-11-20T09:05:35Z</time>
      </trkpt>
      <trkpt lat="47.79049" lon="1.65789">
        <ele>76.546</ele>
        <time>2011-11-20T09:05:53Z</time>
      </trkpt>
      <trkpt lat="47.79034" lon="1.65758">
        <ele>76.928</ele>
        <time>2011-11-20T09:05:58Z</time>
      </trkpt>
      <trkpt lat="47.7902" lon="1.65708">
        <ele>76.644</ele>
        <time>2011-11-20T09:06:05Z</time>
      </trkpt>
      <trkpt lat="47.79018" lon="1.657">
        <ele>76.564</ele>
        <time>2011-11-20T09:06:09Z</time>
      </trkpt>
      <trkpt lat="47.78928" lon="1.65567">
        <ele>77.324</ele>
        <time>2011-11-20T09:06:30Z</time>
      </trkpt>
      <trkpt lat="47.78923" lon="1.65558">
        <ele>77.336</ele>
        <time>2011-11-20T09:06:33Z</time>
      </trkpt>
      <trkpt lat="47.78915" lon="1.65552">
        <ele>77.463</ele>
        <time>2011-11-20T09:06:37Z</time>
      </trkpt>
      <trkpt lat="47.78912" lon="1.65552">
        <ele>76.64</ele>
        <time>2011-11-20T09:06:43Z</time>
      </trkpt>
      <trkpt lat="47.78886" lon="1.65517">
        <ele>76.715</ele>
        <time>2011-11-20T09:06:55Z</time>
      </trkpt>
      <trkpt lat="47.78835" lon="1.6543">
        <ele>76.646</ele>
        <time>2011-11-20T09:07:12Z</time>
      </trkpt>
      <trkpt lat="47.78833" lon="1.65425">
        <ele>76.646</ele>
        <time>2011-11-20T09:07:13Z</time>
      </trkpt>
      <trkpt lat="47.78817" lon="1.654">
        <ele>76.639</ele>
        <time>2011-11-20T09:07:18Z</time>
      </trkpt>
      <trkpt lat="47.78749" lon="1.65311">
        <ele>76.255</ele>
        <time>2011-11-20T09:07:38Z</time>
      </trkpt>
      <trkpt lat="47.7874" lon="1.65302">
        <ele>76.47</ele>
        <time>2011-11-20T09:07:41Z</time>
      </trkpt>
      <trkpt lat="47.78728" lon="1.65291">
        <ele>76.13</ele>
        <time>2011-11-20T09:07:44Z</time>
      </trkpt>
      <trkpt lat="47.78648" lon="1.65176">
        <ele>76.478</ele>
        <time>2011-11-20T09:08:07Z</time>
      </trkpt>
      <trkpt lat="47.78629" lon="1.65133">
        <ele>76.513</ele>
        <time>2011-11-20T09:08:15Z</time>
      </trkpt>
      <trkpt lat="47.78614" lon="1.65018">
        <ele>76.098</ele>
        <time>2011-11-20T09:08:31Z</time>
      </trkpt>
      <trkpt lat="47.78611" lon="1.64999">
        <ele>75.799</ele>
        <time>2011-11-20T09:08:34Z</time>
      </trkpt>
      <trkpt lat="47.78587" lon="1.64894">
        <ele>76.147</ele>
        <time>2011-11-20T09:08:51Z</time>
      </trkpt>
      <trkpt lat="47.78562" lon="1.64817">
        <ele>76.171</ele>
        <time>2011-11-20T09:09:06Z</time>
      </trkpt>
      <trkpt lat="47.7854" lon="1.64782">
        <ele>75.788</ele>
        <time>2011-11-20T09:09:14Z</time>
      </trkpt>
      <trkpt lat="47.78516" lon="1.64721">
        <ele>76.024</ele>
        <time>2011-11-20T09:09:27Z</time>
      </trkpt>
      <trkpt lat="47.78475" lon="1.64654">
        <ele>76.533</ele>
        <time>2011-11-20T09:09:42Z</time>
      </trkpt>
      <trkpt lat="47.78416" lon="1.64562">
        <ele>76.093</ele>
        <time>2011-11-20T09:10:01Z</time>
      </trkpt>
      <trkpt lat="47.78364" lon="1.64486">
        <ele>76.157</ele>
        <time>2011-11-20T09:10:17Z</time>
      </trkpt>
      <trkpt lat="47.78293" lon="1.64429">
        <ele>76.278</ele>
        <time>2011-11-20T09:10:34Z</time>
      </trkpt>
      <trkpt lat="47.78213" lon="1.6435">
        <ele>76.008</ele>
        <time>2011-11-20T09:10:54Z</time>
      </trkpt>
      <trkpt lat="47.78146" lon="1.64252">
        <ele>76.557</ele>
        <time>2011-11-20T09:11:14Z</time>
      </trkpt>
      <trkpt lat="47.7808" lon="1.64172">
        <ele>76.492</ele>
        <time>2011-11-20T09:11:32Z</time>
      </trkpt>
      <trkpt lat="47.78031" lon="1.64065">
        <ele>76.176</ele>
        <time>2011-11-20T09:11:49Z</time>
      </trkpt>
      <trkpt lat="47.77972" lon="1.63893">
        <ele>76.019</ele>
        <time>2011-11-20T09:12:15Z</time>
      </trkpt>
      <trkpt lat="47.77931" lon="1.63769">
        <ele>75.81</ele>
        <time>2011-11-20T09:12:36Z</time>
      </trkpt>
      <trkpt lat="47.77907" lon="1.63711">
        <ele>74.892</ele>
        <time>2011-11-20T09:12:50Z</time>
      </trkpt>
      <trkpt lat="47.77885" lon="1.63662">
        <ele>74.864</ele>
        <time>2011-11-20T09:13:06Z</time>
      </trkpt>
      <trkpt lat="47.77884" lon="1.63658">
        <ele>75.163</ele>
        <time>2011-11-20T09:13:21Z</time>
      </trkpt>
      <trkpt lat="47.77884" lon="1.63658">
        <ele>73.705</ele>
        <time>2011-11-20T09:13:39Z</time>
      </trkpt>
      <trkpt lat="47.77884" lon="1.63658">
        <ele>76.242</ele>
        <time>2011-11-20T09:23:39Z</time>
      </trkpt>
      <trkpt lat="47.77884" lon="1.63658">
        <ele>75.839</ele>
        <time>2011-11-20T09:24:23Z</time>
      </trkpt>
      <trkpt lat="47.77884" lon="1.63658">
        <ele>75.709</ele>
        <time>2011-11-20T09:25:30Z</time>
      </trkpt>
      <trkpt lat="47.77895" lon="1.63689">
        <ele>75.69</ele>
        <time>2011-11-20T09:25:47Z</time>
      </trkpt>
      <trkpt lat="47.77921" lon="1.63688">
        <ele>76.456</ele>
        <time>2011-11-20T09:25:58Z</time>
      </trkpt>
      <trkpt lat="47.77961" lon="1.6362">
        <ele>78.253</ele>
        <time>2011-11-20T09:26:16Z</time>
      </trkpt>
      <trkpt lat="47.78002" lon="1.63561">
        <ele>80.035</ele>
        <time>2011-11-20T09:26:33Z</time>
      </trkpt>
      <trkpt lat="47.78039" lon="1.63503">
        <ele>83.712</ele>
        <time>2011-11-20T09:26:50Z</time>
      </trkpt>
      <trkpt lat="47.78082" lon="1.63437">
        <ele>86.771</ele>
        <time>2011-11-20T09:27:09Z</time>
      </trkpt>
      <trkpt lat="47.78109" lon="1.63459">
        <ele>89.029</ele>
        <time>2011-11-20T09:27:18Z</time>
      </trkpt>
      <trkpt lat="47.78147" lon="1.63505">
        <ele>90.559</ele>
        <time>2011-11-20T09:27:32Z</time>
      </trkpt>
      <trkpt lat="47.78223" lon="1.63603">
        <ele>89.475</ele>
        <time>2011-11-20T09:27:55Z</time>
      </trkpt>
      <trkpt lat="47.78254" lon="1.63648">
        <ele>88.755</ele>
        <time>2011-11-20T09:28:05Z</time>
      </trkpt>
      <trkpt lat="47.78301" lon="1.63786">
        <ele>87.847</ele>
        <time>2011-11-20T09:28:26Z</time>
      </trkpt>
      <trkpt lat="47.78355" lon="1.63885">
        <ele>87.871</ele>
        <time>2011-11-20T09:28:40Z</time>
      </trkpt>
      <trkpt lat="47.78413" lon="1.63996">
        <ele>90.179</ele>
        <time>2011-11-20T09:28:59Z</time>
      </trkpt>
      <trkpt lat="47.78488" lon="1.64106">
        <ele>92.062</ele>
        <time>2011-11-20T09:29:21Z</time>
      </trkpt>
      <trkpt lat="47.78552" lon="1.64196">
        <ele>91.805</ele>
        <time>2011-11-20T09:29:41Z</time>
      </trkpt>
      <trkpt lat="47.78601" lon="1.64269">
        <ele>91.745</ele>
        <time>2011-11-20T09:29:54Z</time>
      </trkpt>
      <trkpt lat="47.78652" lon="1.64334">
        <ele>91.017</ele>
        <time>2011-11-20T09:30:10Z</time>
      </trkpt>
      <trkpt lat="47.78693" lon="1.64368">
        <ele>92.425</ele>
        <time>2011-11-20T09:30:25Z</time>
      </trkpt>
      <trkpt lat="47.78758" lon="1.64449">
        <ele>92.501</ele>
        <time>2011-11-20T09:30:45Z</time>
      </trkpt>
      <trkpt lat="47.78812" lon="1.64526">
        <ele>89.372</ele>
        <time>2011-11-20T09:31:00Z</time>
      </trkpt>
      <trkpt lat="47.78873" lon="1.64601">
        <ele>89.281</ele>
        <time>2011-11-20T09:31:17Z</time>
      </trkpt>
      <trkpt lat="47.78897" lon="1.64678">
        <ele>92.583</ele>
        <time>2011-11-20T09:31:33Z</time>
      </trkpt>
      <trkpt lat="47.78926" lon="1.64757">
        <ele>94.178</ele>
        <time>2011-11-20T09:31:51Z</time>
      </trkpt>
      <trkpt lat="47.78978" lon="1.64869">
        <ele>93.402</ele>
        <time>2011-11-20T09:32:13Z</time>
      </trkpt>
      <trkpt lat="47.78996" lon="1.64906">
        <ele>93.219</ele>
        <time>2011-11-20T09:32:20Z</time>
      </trkpt>
      <trkpt lat="47.7901" lon="1.64936">
        <ele>92.606</ele>
        <time>2011-11-20T09:32:26Z</time>
      </trkpt>
      <trkpt lat="47.79081" lon="1.65086">
        <ele>93.972</ele>
        <time>2011-11-20T09:32:56Z</time>
      </trkpt>
      <trkpt lat="47.79147" lon="1.6518">
        <ele>93.967</ele>
        <time>2011-11-20T09:33:15Z</time>
      </trkpt>
      <trkpt lat="47.79225" lon="1.6527">
        <ele>94.17</ele>
        <time>2011-11-20T09:33:36Z</time>
      </trkpt>
      <trkpt lat="47.79315" lon="1.65357">
        <ele>93.247</ele>
        <time>2011-11-20T09:33:59Z</time>
      </trkpt>
      <trkpt lat="47.79319" lon="1.65361">
        <ele>93.248</ele>
        <time>2011-11-20T09:34:00Z</time>
      </trkpt>
      <trkpt lat="47.79335" lon="1.65378">
        <ele>93.052</ele>
        <time>2011-11-20T09:34:04Z</time>
      </trkpt>
      <trkpt lat="47.79401" lon="1.65448">
        <ele>94.021</ele>
        <time>2011-11-20T09:34:24Z</time>
      </trkpt>
      <trkpt lat="47.79472" lon="1.65496">
        <ele>92.958</ele>
        <time>2011-11-20T09:34:42Z</time>
      </trkpt>
      <trkpt lat="47.79544" lon="1.65553">
        <ele>94.115</ele>
        <time>2011-11-20T09:35:01Z</time>
      </trkpt>
      <trkpt lat="47.79587" lon="1.65599">
        <ele>93.752</ele>
        <time>2011-11-20T09:35:13Z</time>
      </trkpt>
      <trkpt lat="47.79606" lon="1.65625">
        <ele>93.538</ele>
        <time>2011-11-20T09:35:19Z</time>
      </trkpt>
      <trkpt lat="47.79615" lon="1.65638">
        <ele>93.934</ele>
        <time>2011-11-20T09:35:22Z</time>
      </trkpt>
      <trkpt lat="47.79655" lon="1.65692">
        <ele>94.485</ele>
        <time>2011-11-20T09:35:35Z</time>
      </trkpt>
      <trkpt lat="47.79736" lon="1.65759">
        <ele>94.339</ele>
        <time>2011-11-20T09:35:56Z</time>
      </trkpt>
      <trkpt lat="47.79744" lon="1.65765">
        <ele>94.622</ele>
        <time>2011-11-20T09:35:58Z</time>
      </trkpt>
      <trkpt lat="47.79755" lon="1.65776">
        <ele>94.364</ele>
        <time>2011-11-20T09:36:01Z</time>
      </trkpt>
      <trkpt lat="47.79802" lon="1.65871">
        <ele>93.919</ele>
        <time>2011-11-20T09:36:18Z</time>
      </trkpt>
      <trkpt lat="47.79817" lon="1.65908">
        <ele>93.316</ele>
        <time>2011-11-20T09:36:24Z</time>
      </trkpt>
      <trkpt lat="47.79861" lon="1.66092">
        <ele>92.03</ele>
        <time>2011-11-20T09:36:50Z</time>
      </trkpt>
      <trkpt lat="47.79887" lon="1.6622">
        <ele>88.652</ele>
        <time>2011-11-20T09:37:08Z</time>
      </trkpt>
      <trkpt lat="47.79896" lon="1.66281">
        <ele>85.194</ele>
        <time>2011-11-20T09:37:15Z</time>
      </trkpt>
      <trkpt lat="47.79898" lon="1.66298">
        <ele>83.579</ele>
        <time>2011-11-20T09:37:17Z</time>
      </trkpt>
      <trkpt lat="47.79904" lon="1.66341">
        <ele>79.566</ele>
        <time>2011-11-20T09:37:23Z</time>
      </trkpt>
      <trkpt lat="47.79905" lon="1.66348">
        <ele>79.564</ele>
        <time>2011-11-20T09:37:24Z</time>
      </trkpt>
      <trkpt lat="47.79905" lon="1.66373">
        <ele>77.789</ele>
        <time>2011-11-20T09:37:28Z</time>
      </trkpt>
      <trkpt lat="47.79905" lon="1.66386">
        <ele>75.939</ele>
        <time>2011-11-20T09:37:31Z</time>
      </trkpt>
      <trkpt lat="47.79905" lon="1.66387">
        <ele>75.922</ele>
        <time>2011-11-20T09:37:32Z</time>
      </trkpt>
      <trkpt lat="47.79905" lon="1.66387">
        <ele>75.387</ele>
        <time>2011-11-20T09:37:47Z</time>
      </trkpt>
      <trkpt lat="47.79905" lon="1.66387">
        <ele>75.739</ele>
        <time>2011-11-20T09:38:37Z</time>
      </trkpt>
      <trkpt lat="47.79905" lon="1.66387">
        <ele>75.96</ele>
        <time>2011-11-20T09:40:39Z</time>
      </trkpt>
      <trkpt lat="47.79922" lon="1.66408">
        <ele>76.431</ele>
        <time>2011-11-20T09:40:47Z</time>
      </trkpt>
      <trkpt lat="47.79958" lon="1.6649">
        <ele>77.487</ele>
        <time>2011-11-20T09:41:05Z</time>
      </trkpt>
      <trkpt lat="47.8" lon="1.66554">
        <ele>80.636</ele>
        <time>2011-11-20T09:41:22Z</time>
      </trkpt>
      <trkpt lat="47.8004" lon="1.66619">
        <ele>83.153</ele>
        <time>2011-11-20T09:41:39Z</time>
      </trkpt>
      <trkpt lat="47.80096" lon="1.66716">
        <ele>84.895</ele>
        <time>2011-11-20T09:42:02Z</time>
      </trkpt>
      <trkpt lat="47.80148" lon="1.66804">
        <ele>83.423</ele>
        <time>2011-11-20T09:42:22Z</time>
      </trkpt>
      <trkpt lat="47.80193" lon="1.66894">
        <ele>84.921</ele>
        <time>2011-11-20T09:42:40Z</time>
      </trkpt>
      <trkpt lat="47.80244" lon="1.66955">
        <ele>88.21</ele>
        <time>2011-11-20T09:42:57Z</time>
      </trkpt>
      <trkpt lat="47.80247" lon="1.66957">
        <ele>88.21</ele>
        <time>2011-11-20T09:42:58Z</time>
      </trkpt>
      <trkpt lat="47.80299" lon="1.66992">
        <ele>91.368</ele>
        <time>2011-11-20T09:43:16Z</time>
      </trkpt>
      <trkpt lat="47.80363" lon="1.67064">
        <ele>92.903</ele>
        <time>2011-11-20T09:43:38Z</time>
      </trkpt>
      <trkpt lat="47.80401" lon="1.67099">
        <ele>93.615</ele>
        <time>2011-11-20T09:43:52Z</time>
      </trkpt>
      <trkpt lat="47.80464" lon="1.67163">
        <ele>93.869</ele>
        <time>2011-11-20T09:44:13Z</time>
      </trkpt>
      <trkpt lat="47.80542" lon="1.67234">
        <ele>94.174</ele>
        <time>2011-11-20T09:44:38Z</time>
      </trkpt>
      <trkpt lat="47.80581" lon="1.67263">
        <ele>94.283</ele>
        <time>2011-11-20T09:44:51Z</time>
      </trkpt>
      <trkpt lat="47.80637" lon="1.6731">
        <ele>93.949</ele>
        <time>2011-11-20T09:45:09Z</time>
      </trkpt>
      <trkpt lat="47.80679" lon="1.67347">
        <ele>94.09</ele>
        <time>2011-11-20T09:45:23Z</time>
      </trkpt>
      <trkpt lat="47.80735" lon="1.6741">
        <ele>93.78</ele>
        <time>2011-11-20T09:45:43Z</time>
      </trkpt>
      <trkpt lat="47.80807" lon="1.6748">
        <ele>92.112</ele>
        <time>2011-11-20T09:46:04Z</time>
      </trkpt>
      <trkpt lat="47.8085" lon="1.67512">
        <ele>90.81</ele>
        <time>2011-11-20T09:46:21Z</time>
      </trkpt>
      <trkpt lat="47.80851" lon="1.67512">
        <ele>90.084</ele>
        <time>2011-11-20T09:46:39Z</time>
      </trkpt>
      <trkpt lat="47.8087" lon="1.67516">
        <ele>90.36</ele>
        <time>2011-11-20T09:46:50Z</time>
      </trkpt>
      <trkpt lat="47.8091" lon="1.67523">
        <ele>93.414</ele>
        <time>2011-11-20T09:47:04Z</time>
      </trkpt>
      <trkpt lat="47.80944" lon="1.67562">
        <ele>95.407</ele>
        <time>2011-11-20T09:47:20Z</time>
      </trkpt>
      <trkpt lat="47.80955" lon="1.67579">
        <ele>94.578</ele>
        <time>2011-11-20T09:47:27Z</time>
      </trkpt>
      <trkpt lat="47.80924" lon="1.67608">
        <ele>90.984</ele>
        <time>2011-11-20T09:47:38Z</time>
      </trkpt>
      <trkpt lat="47.80913" lon="1.67623">
        <ele>89.362</ele>
        <time>2011-11-20T09:47:41Z</time>
      </trkpt>
      <trkpt lat="47.80928" lon="1.67668">
        <ele>86.442</ele>
        <time>2011-11-20T09:47:48Z</time>
      </trkpt>
      <trkpt lat="47.80938" lon="1.67694">
        <ele>84.554</ele>
        <time>2011-11-20T09:47:51Z</time>
      </trkpt>
      <trkpt lat="47.80943" lon="1.6771">
        <ele>82.862</ele>
        <time>2011-11-20T09:47:53Z</time>
      </trkpt>
      <trkpt lat="47.80939" lon="1.67726">
        <ele>80.739</ele>
        <time>2011-11-20T09:47:55Z</time>
      </trkpt>
      <trkpt lat="47.80924" lon="1.67752">
        <ele>78.997</ele>
        <time>2011-11-20T09:47:58Z</time>
      </trkpt>
      <trkpt lat="47.80902" lon="1.67799">
        <ele>77.221</ele>
        <time>2011-11-20T09:48:06Z</time>
      </trkpt>
      <trkpt lat="47.80871" lon="1.67861">
        <ele>76.83</ele>
        <time>2011-11-20T09:48:20Z</time>
      </trkpt>
      <trkpt lat="47.80839" lon="1.67933">
        <ele>77.23</ele>
        <time>2011-11-20T09:48:36Z</time>
      </trkpt>
      <trkpt lat="47.80843" lon="1.67947">
        <ele>76.9</ele>
        <time>2011-11-20T09:48:40Z</time>
      </trkpt>
      <trkpt lat="47.80867" lon="1.67968">
        <ele>77.561</ele>
        <time>2011-11-20T09:48:47Z</time>
      </trkpt>
      <trkpt lat="47.80878" lon="1.67977">
        <ele>77.607</ele>
        <time>2011-11-20T09:48:50Z</time>
      </trkpt>
      <trkpt lat="47.80929" lon="1.68023">
        <ele>77.843</ele>
        <time>2011-11-20T09:49:04Z</time>
      </trkpt>
      <trkpt lat="47.8094" lon="1.68042">
        <ele>77.921</ele>
        <time>2011-11-20T09:49:08Z</time>
      </trkpt>
      <trkpt lat="47.8096" lon="1.68085">
        <ele>77.644</ele>
        <time>2011-11-20T09:49:16Z</time>
      </trkpt>
      <trkpt lat="47.80987" lon="1.68127">
        <ele>78.067</ele>
        <time>2011-11-20T09:49:25Z</time>
      </trkpt>
      <trkpt lat="47.81039" lon="1.68228">
        <ele>77.664</ele>
        <time>2011-11-20T09:49:45Z</time>
      </trkpt>
      <trkpt lat="47.81096" lon="1.68349">
        <ele>78.046</ele>
        <time>2011-11-20T09:50:08Z</time>
      </trkpt>
      <trkpt lat="47.81137" lon="1.68369">
        <ele>78.422</ele>
        <time>2011-11-20T09:50:21Z</time>
      </trkpt>
      <trkpt lat="47.81239" lon="1.68411">
        <ele>78.36</ele>
        <time>2011-11-20T09:50:47Z</time>
      </trkpt>
      <trkpt lat="47.81334" lon="1.68482">
        <ele>79.168</ele>
        <time>2011-11-20T09:51:12Z</time>
      </trkpt>
      <trkpt lat="47.81422" lon="1.68592">
        <ele>78.56</ele>
        <time>2011-11-20T09:51:37Z</time>
      </trkpt>
      <trkpt lat="47.81508" lon="1.68722">
        <ele>78.372</ele>
        <time>2011-11-20T09:52:02Z</time>
      </trkpt>
      <trkpt lat="47.81586" lon="1.6882">
        <ele>77.817</ele>
        <time>2011-11-20T09:52:25Z</time>
      </trkpt>
      <trkpt lat="47.81589" lon="1.6882">
        <ele>77.817</ele>
        <time>2011-11-20T09:52:26Z</time>
      </trkpt>
      <trkpt lat="47.81639" lon="1.68897">
        <ele>78.084</ele>
        <time>2011-11-20T09:52:42Z</time>
      </trkpt>
      <trkpt lat="47.81714" lon="1.68996">
        <ele>78.191</ele>
        <time>2011-11-20T09:53:04Z</time>
      </trkpt>
      <trkpt lat="47.81779" lon="1.69092">
        <ele>78.54</ele>
        <time>2011-11-20T09:53:26Z</time>
      </trkpt>
      <trkpt lat="47.81823" lon="1.69165">
        <ele>78.956</ele>
        <time>2011-11-20T09:53:44Z</time>
      </trkpt>
      <trkpt lat="47.8183" lon="1.69179">
        <ele>78.927</ele>
        <time>2011-11-20T09:53:50Z</time>
      </trkpt>
      <trkpt lat="47.81848" lon="1.69208">
        <ele>78.352</ele>
        <time>2011-11-20T09:53:59Z</time>
      </trkpt>
      <trkpt lat="47.81867" lon="1.69237">
        <ele>78.481</ele>
        <time>2011-11-20T09:54:09Z</time>
      </trkpt>
      <trkpt lat="47.81881" lon="1.69258">
        <ele>78.364</ele>
        <time>2011-11-20T09:54:15Z</time>
      </trkpt>
      <trkpt lat="47.81896" lon="1.69281">
        <ele>78.4</ele>
        <time>2011-11-20T09:54:20Z</time>
      </trkpt>
      <trkpt lat="47.81927" lon="1.69315">
        <ele>77.898</ele>
        <time>2011-11-20T09:54:30Z</time>
      </trkpt>
      <trkpt lat="47.81964" lon="1.69359">
        <ele>77.955</ele>
        <time>2011-11-20T09:54:39Z</time>
      </trkpt>
      <trkpt lat="47.81989" lon="1.69386">
        <ele>77.629</ele>
        <time>2011-11-20T09:54:46Z</time>
      </trkpt>
      <trkpt lat="47.82029" lon="1.69425">
        <ele>78.074</ele>
        <time>2011-11-20T09:54:59Z</time>
      </trkpt>
      <trkpt lat="47.82061" lon="1.69453">
        <ele>78.442</ele>
        <time>2011-11-20T09:55:09Z</time>
      </trkpt>
      <trkpt lat="47.82064" lon="1.69457">
        <ele>78.588</ele>
        <time>2011-11-20T09:55:10Z</time>
      </trkpt>
      <trkpt lat="47.82103" lon="1.69487">
        <ele>78.371</ele>
        <time>2011-11-20T09:55:22Z</time>
      </trkpt>
      <trkpt lat="47.82136" lon="1.69509">
        <ele>77.949</ele>
        <time>2011-11-20T09:55:32Z</time>
      </trkpt>
      <trkpt lat="47.8217" lon="1.69527">
        <ele>77.987</ele>
        <time>2011-11-20T09:55:43Z</time>
      </trkpt>
      <trkpt lat="47.82219" lon="1.69536">
        <ele>78.892</ele>
        <time>2011-11-20T09:55:56Z</time>
      </trkpt>
      <trkpt lat="47.82251" lon="1.69539">
        <ele>78.736</ele>
        <time>2011-11-20T09:56:05Z</time>
      </trkpt>
      <trkpt lat="47.82291" lon="1.69554">
        <ele>79.172</ele>
        <time>2011-11-20T09:56:16Z</time>
      </trkpt>
      <trkpt lat="47.8231" lon="1.69572">
        <ele>79.723</ele>
        <time>2011-11-20T09:56:26Z</time>
      </trkpt>
      <trkpt lat="47.8231" lon="1.69572">
        <ele>79.598</ele>
        <time>2011-11-20T09:56:46Z</time>
      </trkpt>
      <trkpt lat="47.8231" lon="1.69572">
        <ele>79.826</ele>
        <time>2011-11-20T09:57:37Z</time>
      </trkpt>
      <trkpt lat="47.82335" lon="1.69602">
        <ele>80.329</ele>
        <time>2011-11-20T09:58:41Z</time>
      </trkpt>
      <trkpt lat="47.82381" lon="1.69643">
        <ele>80.647</ele>
        <time>2011-11-20T09:59:00Z</time>
      </trkpt>
      <trkpt lat="47.82414" lon="1.69649">
        <ele>81.092</ele>
        <time>2011-11-20T09:59:17Z</time>
      </trkpt>
      <trkpt lat="47.82414" lon="1.69649">
        <ele>80.932</ele>
        <time>2011-11-20T09:59:42Z</time>
      </trkpt>
      <trkpt lat="47.8243" lon="1.69649">
        <ele>80.829</ele>
        <time>2011-11-20T09:59:56Z</time>
      </trkpt>
      <trkpt lat="47.82483" lon="1.69626">
        <ele>80.901</ele>
        <time>2011-11-20T10:00:11Z</time>
      </trkpt>
      <trkpt lat="47.82505" lon="1.69613">
        <ele>81.982</ele>
        <time>2011-11-20T10:00:21Z</time>
      </trkpt>
      <trkpt lat="47.82507" lon="1.69612">
        <ele>82.182</ele>
        <time>2011-11-20T10:00:22Z</time>
      </trkpt>
      <trkpt lat="47.82507" lon="1.69597">
        <ele>82.261</ele>
        <time>2011-11-20T10:00:26Z</time>
      </trkpt>
      <trkpt lat="47.82502" lon="1.69574">
        <ele>82.558</ele>
        <time>2011-11-20T10:00:32Z</time>
      </trkpt>
      <trkpt lat="47.82502" lon="1.69555">
        <ele>83.361</ele>
        <time>2011-11-20T10:00:36Z</time>
      </trkpt>
      <trkpt lat="47.82508" lon="1.69546">
        <ele>83.432</ele>
        <time>2011-11-20T10:00:44Z</time>
      </trkpt>
      <trkpt lat="47.82518" lon="1.69556">
        <ele>83.615</ele>
        <time>2011-11-20T10:00:48Z</time>
      </trkpt>
      <trkpt lat="47.82546" lon="1.69597">
        <ele>82.649</ele>
        <time>2011-11-20T10:01:02Z</time>
      </trkpt>
      <trkpt lat="47.82548" lon="1.696">
        <ele>82.649</ele>
        <time>2011-11-20T10:01:03Z</time>
      </trkpt>
      <trkpt lat="47.8255" lon="1.69603">
        <ele>82.807</ele>
        <time>2011-11-20T10:01:05Z</time>
      </trkpt>
      <trkpt lat="47.82589" lon="1.69564">
        <ele>82.519</ele>
        <time>2011-11-20T10:01:17Z</time>
      </trkpt>
      <trkpt lat="47.82591" lon="1.69554">
        <ele>83.178</ele>
        <time>2011-11-20T10:01:20Z</time>
      </trkpt>
      <trkpt lat="47.82614" lon="1.69533">
        <ele>82.781</ele>
        <time>2011-11-20T10:01:27Z</time>
      </trkpt>
      <trkpt lat="47.82646" lon="1.6954">
        <ele>82.687</ele>
        <time>2011-11-20T10:01:35Z</time>
      </trkpt>
      <trkpt lat="47.82665" lon="1.69551">
        <ele>82.664</ele>
        <time>2011-11-20T10:01:41Z</time>
      </trkpt>
      <trkpt lat="47.82666" lon="1.69552">
        <ele>82.587</ele>
        <time>2011-11-20T10:01:44Z</time>
      </trkpt>
      <trkpt lat="47.82701" lon="1.69567">
        <ele>82.45</ele>
        <time>2011-11-20T10:01:57Z</time>
      </trkpt>
      <trkpt lat="47.82765" lon="1.69582">
        <ele>83.222</ele>
        <time>2011-11-20T10:02:15Z</time>
      </trkpt>
      <trkpt lat="47.82765" lon="1.69582">
        <ele>83.057</ele>
        <time>2011-11-20T10:02:26Z</time>
      </trkpt>
      <trkpt lat="47.82765" lon="1.69582">
        <ele>83.347</ele>
        <time>2011-11-20T10:02:42Z</time>
      </trkpt>
      <trkpt lat="47.82765" lon="1.69582">
        <ele>83.421</ele>
        <time>2011-11-20T10:02:57Z</time>
      </trkpt>
      <trkpt lat="47.82784" lon="1.69568">
        <ele>83.79</ele>
        <time>2011-11-20T10:03:00Z</time>
      </trkpt>
      <trkpt lat="47.82788" lon="1.69563">
        <ele>84.592</ele>
        <time>2011-11-20T10:03:11Z</time>
      </trkpt>
      <trkpt lat="47.82811" lon="1.69573">
        <ele>84.85</ele>
        <time>2011-11-20T10:03:47Z</time>
      </trkpt>
      <trkpt lat="47.82821" lon="1.69582">
        <ele>83.738</ele>
        <time>2011-11-20T10:04:03Z</time>
      </trkpt>
      <trkpt lat="47.82851" lon="1.696">
        <ele>84.378</ele>
        <time>2011-11-20T10:04:25Z</time>
      </trkpt>
      <trkpt lat="47.82933" lon="1.69654">
        <ele>85.96</ele>
        <time>2011-11-20T10:04:48Z</time>
      </trkpt>
      <trkpt lat="47.82969" lon="1.69706">
        <ele>85.955</ele>
        <time>2011-11-20T10:05:00Z</time>
      </trkpt>
      <trkpt lat="47.8298" lon="1.69721">
        <ele>86.04</ele>
        <time>2011-11-20T10:05:06Z</time>
      </trkpt>
      <trkpt lat="47.83024" lon="1.69792">
        <ele>86.219</ele>
        <time>2011-11-20T10:05:20Z</time>
      </trkpt>
      <trkpt lat="47.83052" lon="1.6983">
        <ele>86.56</ele>
        <time>2011-11-20T10:05:28Z</time>
      </trkpt>
      <trkpt lat="47.83069" lon="1.69847">
        <ele>86.21</ele>
        <time>2011-11-20T10:05:32Z</time>
      </trkpt>
      <trkpt lat="47.83115" lon="1.69846">
        <ele>86.236</ele>
        <time>2011-11-20T10:05:42Z</time>
      </trkpt>
      <trkpt lat="47.83138" lon="1.6985">
        <ele>86.64</ele>
        <time>2011-11-20T10:05:47Z</time>
      </trkpt>
      <trkpt lat="47.83193" lon="1.69883">
        <ele>87.32</ele>
        <time>2011-11-20T10:06:01Z</time>
      </trkpt>
      <trkpt lat="47.83224" lon="1.69908">
        <ele>86.871</ele>
        <time>2011-11-20T10:06:10Z</time>
      </trkpt>
      <trkpt lat="47.83259" lon="1.69941">
        <ele>87.167</ele>
        <time>2011-11-20T10:06:22Z</time>
      </trkpt>
      <trkpt lat="47.83267" lon="1.69948">
        <ele>87.116</ele>
        <time>2011-11-20T10:06:33Z</time>
      </trkpt>
      <trkpt lat="47.83267" lon="1.69948">
        <ele>87.2</ele>
        <time>2011-11-20T10:07:11Z</time>
      </trkpt>
      <trkpt lat="47.83267" lon="1.6996">
        <ele>87.274</ele>
        <time>2011-11-20T10:07:17Z</time>
      </trkpt>
      <trkpt lat="47.83233" lon="1.70052">
        <ele>87.111</ele>
        <time>2011-11-20T10:07:34Z</time>
      </trkpt>
      <trkpt lat="47.8321" lon="1.70103">
        <ele>87.408</ele>
        <time>2011-11-20T10:07:45Z</time>
      </trkpt>
      <trkpt lat="47.83223" lon="1.70114">
        <ele>87.335</ele>
        <time>2011-11-20T10:07:50Z</time>
      </trkpt>
      <trkpt lat="47.83251" lon="1.7013">
        <ele>87.116</ele>
        <time>2011-11-20T10:08:03Z</time>
      </trkpt>
      <trkpt lat="47.83299" lon="1.70159">
        <ele>87.412</ele>
        <time>2011-11-20T10:08:20Z</time>
      </trkpt>
      <trkpt lat="47.83331" lon="1.70175">
        <ele>87.388</ele>
        <time>2011-11-20T10:08:30Z</time>
      </trkpt>
      <trkpt lat="47.83407" lon="1.70196">
        <ele>88.114</ele>
        <time>2011-11-20T10:08:47Z</time>
      </trkpt>
      <trkpt lat="47.83506" lon="1.70222">
        <ele>87.757</ele>
        <time>2011-11-20T10:09:08Z</time>
      </trkpt>
      <trkpt lat="47.8351" lon="1.70221">
        <ele>87.992</ele>
        <time>2011-11-20T10:09:09Z</time>
      </trkpt>
      <trkpt lat="47.83524" lon="1.70218">
        <ele>88.326</ele>
        <time>2011-11-20T10:09:12Z</time>
      </trkpt>
      <trkpt lat="47.83537" lon="1.70211">
        <ele>88.219</ele>
        <time>2011-11-20T10:09:15Z</time>
      </trkpt>
      <trkpt lat="47.83588" lon="1.70198">
        <ele>88.565</ele>
        <time>2011-11-20T10:09:26Z</time>
      </trkpt>
      <trkpt lat="47.83658" lon="1.70181">
        <ele>88.366</ele>
        <time>2011-11-20T10:09:40Z</time>
      </trkpt>
      <trkpt lat="47.83708" lon="1.7018">
        <ele>88.145</ele>
        <time>2011-11-20T10:09:50Z</time>
      </trkpt>
      <trkpt lat="47.83731" lon="1.70162">
        <ele>88.409</ele>
        <time>2011-11-20T10:09:57Z</time>
      </trkpt>
      <trkpt lat="47.83759" lon="1.70173">
        <ele>88.456</ele>
        <time>2011-11-20T10:10:06Z</time>
      </trkpt>
      <trkpt lat="47.83762" lon="1.70187">
        <ele>88.496</ele>
        <time>2011-11-20T10:10:09Z</time>
      </trkpt>
      <trkpt lat="47.83799" lon="1.70231">
        <ele>89.144</ele>
        <time>2011-11-20T10:10:22Z</time>
      </trkpt>
      <trkpt lat="47.83812" lon="1.70248">
        <ele>88.542</ele>
        <time>2011-11-20T10:10:27Z</time>
      </trkpt>
      <trkpt lat="47.83822" lon="1.70259">
        <ele>88.716</ele>
        <time>2011-11-20T10:10:31Z</time>
      </trkpt>
      <trkpt lat="47.83827" lon="1.7029">
        <ele>89.043</ele>
        <time>2011-11-20T10:10:35Z</time>
      </trkpt>
      <trkpt lat="47.8385" lon="1.70313">
        <ele>88.63</ele>
        <time>2011-11-20T10:10:41Z</time>
      </trkpt>
      <trkpt lat="47.83868" lon="1.70331">
        <ele>88.218</ele>
        <time>2011-11-20T10:10:46Z</time>
      </trkpt>
      <trkpt lat="47.8388" lon="1.70318">
        <ele>88.033</ele>
        <time>2011-11-20T10:10:54Z</time>
      </trkpt>
      <trkpt lat="47.83889" lon="1.70283">
        <ele>89.154</ele>
        <time>2011-11-20T10:11:06Z</time>
      </trkpt>
      <trkpt lat="47.83903" lon="1.70272">
        <ele>89.422</ele>
        <time>2011-11-20T10:11:11Z</time>
      </trkpt>
      <trkpt lat="47.83943" lon="1.70277">
        <ele>89.89</ele>
        <time>2011-11-20T10:11:22Z</time>
      </trkpt>
      <trkpt lat="47.83989" lon="1.70269">
        <ele>89.351</ele>
        <time>2011-11-20T10:11:33Z</time>
      </trkpt>
      <trkpt lat="47.84065" lon="1.70252">
        <ele>89.96</ele>
        <time>2011-11-20T10:11:50Z</time>
      </trkpt>
      <trkpt lat="47.84129" lon="1.70267">
        <ele>89.448</ele>
        <time>2011-11-20T10:12:05Z</time>
      </trkpt>
      <trkpt lat="47.84183" lon="1.70284">
        <ele>89.456</ele>
        <time>2011-11-20T10:12:19Z</time>
      </trkpt>
      <trkpt lat="47.84216" lon="1.70294">
        <ele>89.36</ele>
        <time>2011-11-20T10:12:26Z</time>
      </trkpt>
      <trkpt lat="47.84271" lon="1.70331">
        <ele>89.262</ele>
        <time>2011-11-20T10:12:31Z</time>
      </trkpt>
      <trkpt lat="47.84273" lon="1.70327">
        <ele>89.497</ele>
        <time>2011-11-20T10:12:33Z</time>
      </trkpt>
      <trkpt lat="47.84247" lon="1.70313">
        <ele>88.814</ele>
        <time>2011-11-20T10:12:37Z</time>
      </trkpt>
      <trkpt lat="47.84255" lon="1.70327">
        <ele>89.509</ele>
        <time>2011-11-20T10:12:47Z</time>
      </trkpt>
      <trkpt lat="47.84261" lon="1.70339">
        <ele>89.834</ele>
        <time>2011-11-20T10:12:51Z</time>
      </trkpt>
      <trkpt lat="47.84261" lon="1.70339">
        <ele>90.379</ele>
        <time>2011-11-20T10:12:53Z</time>
      </trkpt>
      <trkpt lat="47.84289" lon="1.7031">
        <ele>90.528</ele>
        <time>2011-11-20T10:13:06Z</time>
      </trkpt>
      <trkpt lat="47.84289" lon="1.7031">
        <ele>90.52</ele>
        <time>2011-11-20T10:13:26Z</time>
      </trkpt>
      <trkpt lat="47.84295" lon="1.70306">
        <ele>90.491</ele>
        <time>2011-11-20T10:13:29Z</time>
      </trkpt>
      <trkpt lat="47.84308" lon="1.70243">
        <ele>90.125</ele>
        <time>2011-11-20T10:13:42Z</time>
      </trkpt>
      <trkpt lat="47.84306" lon="1.70224">
        <ele>90.299</ele>
        <time>2011-11-20T10:13:46Z</time>
      </trkpt>
      <trkpt lat="47.84325" lon="1.70136">
        <ele>90.183</ele>
        <time>2011-11-20T10:14:00Z</time>
      </trkpt>
      <trkpt lat="47.84337" lon="1.70052">
        <ele>90.189</ele>
        <time>2011-11-20T10:14:14Z</time>
      </trkpt>
      <trkpt lat="47.84339" lon="1.70036">
        <ele>90.068</ele>
        <time>2011-11-20T10:14:17Z</time>
      </trkpt>
      <trkpt lat="47.84342" lon="1.70008">
        <ele>90.264</ele>
        <time>2011-11-20T10:14:21Z</time>
      </trkpt>
      <trkpt lat="47.84348" lon="1.69942">
        <ele>89.739</ele>
        <time>2011-11-20T10:14:30Z</time>
      </trkpt>
      <trkpt lat="47.84366" lon="1.69893">
        <ele>89.716</ele>
        <time>2011-11-20T10:14:38Z</time>
      </trkpt>
      <trkpt lat="47.84372" lon="1.69878">
        <ele>90.285</ele>
        <time>2011-11-20T10:14:41Z</time>
      </trkpt>
      <trkpt lat="47.84379" lon="1.69856">
        <ele>89.825</ele>
        <time>2011-11-20T10:14:45Z</time>
      </trkpt>
      <trkpt lat="47.84385" lon="1.6984">
        <ele>89.727</ele>
        <time>2011-11-20T10:14:49Z</time>
      </trkpt>
      <trkpt lat="47.844" lon="1.69785">
        <ele>89.759</ele>
        <time>2011-11-20T10:15:02Z</time>
      </trkpt>
      <trkpt lat="47.84416" lon="1.69731">
        <ele>89.911</ele>
        <time>2011-11-20T10:15:13Z</time>
      </trkpt>
      <trkpt lat="47.84418" lon="1.69719">
        <ele>89.911</ele>
        <time>2011-11-20T10:15:15Z</time>
      </trkpt>
      <trkpt lat="47.8443" lon="1.69692">
        <ele>90.138</ele>
        <time>2011-11-20T10:15:22Z</time>
      </trkpt>
      <trkpt lat="47.8444" lon="1.69639">
        <ele>89.887</ele>
        <time>2011-11-20T10:15:32Z</time>
      </trkpt>
      <trkpt lat="47.84455" lon="1.69605">
        <ele>89.896</ele>
        <time>2011-11-20T10:15:42Z</time>
      </trkpt>
      <trkpt lat="47.84464" lon="1.69595">
        <ele>91.384</ele>
        <time>2011-11-20T10:15:58Z</time>
      </trkpt>
      <trkpt lat="47.84465" lon="1.69594">
        <ele>91.119</ele>
        <time>2011-11-20T10:16:07Z</time>
      </trkpt>
      <trkpt lat="47.84484" lon="1.69578">
        <ele>90.544</ele>
        <time>2011-11-20T10:16:16Z</time>
      </trkpt>
      <trkpt lat="47.84494" lon="1.69574">
        <ele>90.99</ele>
        <time>2011-11-20T10:16:28Z</time>
      </trkpt>
      <trkpt lat="47.84509" lon="1.69567">
        <ele>90.308</ele>
        <time>2011-11-20T10:16:39Z</time>
      </trkpt>
      <trkpt lat="47.84514" lon="1.69563">
        <ele>90.84</ele>
        <time>2011-11-20T10:17:05Z</time>
      </trkpt>
      <trkpt lat="47.84517" lon="1.6956">
        <ele>90.92</ele>
        <time>2011-11-20T10:17:08Z</time>
      </trkpt>
      <trkpt lat="47.84533" lon="1.69561">
        <ele>90.578</ele>
        <time>2011-11-20T10:17:15Z</time>
      </trkpt>
      <trkpt lat="47.84549" lon="1.69553">
        <ele>91.032</ele>
        <time>2011-11-20T10:17:22Z</time>
      </trkpt>
      <trkpt lat="47.84552" lon="1.69543">
        <ele>90.601</ele>
        <time>2011-11-20T10:17:26Z</time>
      </trkpt>
      <trkpt lat="47.84561" lon="1.69531">
        <ele>91</ele>
        <time>2011-11-20T10:17:30Z</time>
      </trkpt>
      <trkpt lat="47.84586" lon="1.6952">
        <ele>91.131</ele>
        <time>2011-11-20T10:17:39Z</time>
      </trkpt>
      <trkpt lat="47.84641" lon="1.69512">
        <ele>92.794</ele>
        <time>2011-11-20T10:17:56Z</time>
      </trkpt>
      <trkpt lat="47.84648" lon="1.69517">
        <ele>93.223</ele>
        <time>2011-11-20T10:17:59Z</time>
      </trkpt>
      <trkpt lat="47.84658" lon="1.69561">
        <ele>93.798</ele>
        <time>2011-11-20T10:18:15Z</time>
      </trkpt>
      <trkpt lat="47.84691" lon="1.69623">
        <ele>93.421</ele>
        <time>2011-11-20T10:18:32Z</time>
      </trkpt>
      <trkpt lat="47.84745" lon="1.69647">
        <ele>93.987</ele>
        <time>2011-11-20T10:18:48Z</time>
      </trkpt>
      <trkpt lat="47.84803" lon="1.69649">
        <ele>94.162</ele>
        <time>2011-11-20T10:19:02Z</time>
      </trkpt>
      <trkpt lat="47.84888" lon="1.69596">
        <ele>94.953</ele>
        <time>2011-11-20T10:19:23Z</time>
      </trkpt>
      <trkpt lat="47.8497" lon="1.69566">
        <ele>95.884</ele>
        <time>2011-11-20T10:19:42Z</time>
      </trkpt>
      <trkpt lat="47.85049" lon="1.69582">
        <ele>95.746</ele>
        <time>2011-11-20T10:20:00Z</time>
      </trkpt>
      <trkpt lat="47.85136" lon="1.69629">
        <ele>95.656</ele>
        <time>2011-11-20T10:20:21Z</time>
      </trkpt>
      <trkpt lat="47.85177" lon="1.6969">
        <ele>95.091</ele>
        <time>2011-11-20T10:20:36Z</time>
      </trkpt>
      <trkpt lat="47.85179" lon="1.69696">
        <ele>95.292</ele>
        <time>2011-11-20T10:20:38Z</time>
      </trkpt>
      <trkpt lat="47.85246" lon="1.69629">
        <ele>96.481</ele>
        <time>2011-11-20T10:20:53Z</time>
      </trkpt>
      <trkpt lat="47.85324" lon="1.69546">
        <ele>99.317</ele>
        <time>2011-11-20T10:21:14Z</time>
      </trkpt>
      <trkpt lat="47.8539" lon="1.69476">
        <ele>101.657</ele>
        <time>2011-11-20T10:21:33Z</time>
      </trkpt>
      <trkpt lat="47.85475" lon="1.69386">
        <ele>99.723</ele>
        <time>2011-11-20T10:21:53Z</time>
      </trkpt>
      <trkpt lat="47.85525" lon="1.69338">
        <ele>96.521</ele>
        <time>2011-11-20T10:22:01Z</time>
      </trkpt>
      <trkpt lat="47.85597" lon="1.69273">
        <ele>95.27</ele>
        <time>2011-11-20T10:22:14Z</time>
      </trkpt>
      <trkpt lat="47.85668" lon="1.69207">
        <ele>95.986</ele>
        <time>2011-11-20T10:22:33Z</time>
      </trkpt>
      <trkpt lat="47.85699" lon="1.69173">
        <ele>95.379</ele>
        <time>2011-11-20T10:22:43Z</time>
      </trkpt>
      <trkpt lat="47.85708" lon="1.69176">
        <ele>95.395</ele>
        <time>2011-11-20T10:22:48Z</time>
      </trkpt>
      <trkpt lat="47.85746" lon="1.69173">
        <ele>94.467</ele>
        <time>2011-11-20T10:23:00Z</time>
      </trkpt>
      <trkpt lat="47.85754" lon="1.69172">
        <ele>93.912</ele>
        <time>2011-11-20T10:23:14Z</time>
      </trkpt>
      <trkpt lat="47.85769" lon="1.69181">
        <ele>94.675</ele>
        <time>2011-11-20T10:23:23Z</time>
      </trkpt>
      <trkpt lat="47.8577" lon="1.69179">
        <ele>93.811</ele>
        <time>2011-11-20T10:23:28Z</time>
      </trkpt>
      <trkpt lat="47.85776" lon="1.6917">
        <ele>93.404</ele>
        <time>2011-11-20T10:23:32Z</time>
      </trkpt>
      <trkpt lat="47.858" lon="1.69139">
        <ele>93.979</ele>
        <time>2011-11-20T10:23:42Z</time>
      </trkpt>
      <trkpt lat="47.85807" lon="1.69136">
        <ele>94.093</ele>
        <time>2011-11-20T10:23:44Z</time>
      </trkpt>
      <trkpt lat="47.85831" lon="1.69122">
        <ele>94.102</ele>
        <time>2011-11-20T10:23:50Z</time>
      </trkpt>
      <trkpt lat="47.85867" lon="1.69122">
        <ele>94.307</ele>
        <time>2011-11-20T10:23:59Z</time>
      </trkpt>
      <trkpt lat="47.85912" lon="1.69127">
        <ele>93.759</ele>
        <time>2011-11-20T10:24:10Z</time>
      </trkpt>
      <trkpt lat="47.85922" lon="1.69121">
        <ele>94.164</ele>
        <time>2011-11-20T10:24:14Z</time>
      </trkpt>
      <trkpt lat="47.85933" lon="1.69123">
        <ele>93.631</ele>
        <time>2011-11-20T10:24:18Z</time>
      </trkpt>
      <trkpt lat="47.85974" lon="1.69166">
        <ele>94.056</ele>
        <time>2011-11-20T10:24:29Z</time>
      </trkpt>
      <trkpt lat="47.8599" lon="1.69187">
        <ele>93.763</ele>
        <time>2011-11-20T10:24:37Z</time>
      </trkpt>
      <trkpt lat="47.86076" lon="1.69292">
        <ele>94.108</ele>
        <time>2011-11-20T10:24:58Z</time>
      </trkpt>
      <trkpt lat="47.86092" lon="1.69304">
        <ele>93.585</ele>
        <time>2011-11-20T10:25:06Z</time>
      </trkpt>
      <trkpt lat="47.86128" lon="1.69328">
        <ele>94.361</ele>
        <time>2011-11-20T10:25:17Z</time>
      </trkpt>
      <trkpt lat="47.86181" lon="1.69364">
        <ele>96.082</ele>
        <time>2011-11-20T10:25:32Z</time>
      </trkpt>
      <trkpt lat="47.86184" lon="1.69372">
        <ele>96.054</ele>
        <time>2011-11-20T10:25:37Z</time>
      </trkpt>
      <trkpt lat="47.86161" lon="1.69449">
        <ele>96.12</ele>
        <time>2011-11-20T10:25:53Z</time>
      </trkpt>
      <trkpt lat="47.86143" lon="1.69582">
        <ele>96.488</ele>
        <time>2011-11-20T10:26:16Z</time>
      </trkpt>
      <trkpt lat="47.8613" lon="1.69702">
        <ele>96.375</ele>
        <time>2011-11-20T10:26:38Z</time>
      </trkpt>
      <trkpt lat="47.86113" lon="1.69732">
        <ele>96.112</ele>
        <time>2011-11-20T10:26:44Z</time>
      </trkpt>
      <trkpt lat="47.86138" lon="1.69788">
        <ele>96.466</ele>
        <time>2011-11-20T10:26:59Z</time>
      </trkpt>
      <trkpt lat="47.86157" lon="1.69826">
        <ele>96.647</ele>
        <time>2011-11-20T10:27:15Z</time>
      </trkpt>
      <trkpt lat="47.86181" lon="1.6988">
        <ele>97.347</ele>
        <time>2011-11-20T10:27:32Z</time>
      </trkpt>
      <trkpt lat="47.86216" lon="1.69957">
        <ele>96.453</ele>
        <time>2011-11-20T10:27:51Z</time>
      </trkpt>
      <trkpt lat="47.86224" lon="1.6998">
        <ele>96.299</ele>
        <time>2011-11-20T10:27:55Z</time>
      </trkpt>
      <trkpt lat="47.86251" lon="1.70054">
        <ele>95.445</ele>
        <time>2011-11-20T10:28:09Z</time>
      </trkpt>
      <trkpt lat="47.86309" lon="1.70238">
        <ele>95.392</ele>
        <time>2011-11-20T10:28:35Z</time>
      </trkpt>
      <trkpt lat="47.86363" lon="1.70351">
        <ele>95.953</ele>
        <time>2011-11-20T10:28:54Z</time>
      </trkpt>
      <trkpt lat="47.86459" lon="1.70536">
        <ele>97.458</ele>
        <time>2011-11-20T10:29:26Z</time>
      </trkpt>
      <trkpt lat="47.86489" lon="1.70664">
        <ele>96.073</ele>
        <time>2011-11-20T10:29:43Z</time>
      </trkpt>
      <trkpt lat="47.86545" lon="1.70822">
        <ele>95.638</ele>
        <time>2011-11-20T10:30:05Z</time>
      </trkpt>
      <trkpt lat="47.86613" lon="1.70967">
        <ele>96.837</ele>
        <time>2011-11-20T10:30:28Z</time>
      </trkpt>
      <trkpt lat="47.86692" lon="1.71105">
        <ele>98.841</ele>
        <time>2011-11-20T10:30:53Z</time>
      </trkpt>
      <trkpt lat="47.86802" lon="1.71268">
        <ele>99.32</ele>
        <time>2011-11-20T10:31:22Z</time>
      </trkpt>
      <trkpt lat="47.86891" lon="1.71404">
        <ele>97.89</ele>
        <time>2011-11-20T10:31:44Z</time>
      </trkpt>
      <trkpt lat="47.86999" lon="1.71582">
        <ele>97.597</ele>
        <time>2011-11-20T10:32:13Z</time>
      </trkpt>
      <trkpt lat="47.87074" lon="1.71731">
        <ele>97.054</ele>
        <time>2011-11-20T10:32:36Z</time>
      </trkpt>
      <trkpt lat="47.87142" lon="1.71882">
        <ele>98.012</ele>
        <time>2011-11-20T10:32:58Z</time>
      </trkpt>
      <trkpt lat="47.87204" lon="1.72107">
        <ele>98.654</ele>
        <time>2011-11-20T10:33:28Z</time>
      </trkpt>
      <trkpt lat="47.87244" lon="1.72269">
        <ele>99.86</ele>
        <time>2011-11-20T10:33:50Z</time>
      </trkpt>
      <trkpt lat="47.87297" lon="1.72404">
        <ele>101.248</ele>
        <time>2011-11-20T10:34:11Z</time>
      </trkpt>
      <trkpt lat="47.87387" lon="1.72559">
        <ele>102.217</ele>
        <time>2011-11-20T10:34:36Z</time>
      </trkpt>
      <trkpt lat="47.87464" lon="1.72695">
        <ele>101.751</ele>
        <time>2011-11-20T10:34:57Z</time>
      </trkpt>
      <trkpt lat="47.87565" lon="1.72867">
        <ele>101.96</ele>
        <time>2011-11-20T10:35:23Z</time>
      </trkpt>
      <trkpt lat="47.87685" lon="1.73044">
        <ele>102.838</ele>
        <time>2011-11-20T10:35:53Z</time>
      </trkpt>
      <trkpt lat="47.87757" lon="1.73149">
        <ele>103.169</ele>
        <time>2011-11-20T10:36:11Z</time>
      </trkpt>
      <trkpt lat="47.87849" lon="1.73285">
        <ele>101.81</ele>
        <time>2011-11-20T10:36:34Z</time>
      </trkpt>
      <trkpt lat="47.87866" lon="1.73312">
        <ele>101.212</ele>
        <time>2011-11-20T10:36:44Z</time>
      </trkpt>
      <trkpt lat="47.87866" lon="1.73312">
        <ele>101.15</ele>
        <time>2011-11-20T10:38:24Z</time>
      </trkpt>
      <trkpt lat="47.87868" lon="1.73318">
        <ele>101.192</ele>
        <time>2011-11-20T10:38:27Z</time>
      </trkpt>
      <trkpt lat="47.87836" lon="1.73346">
        <ele>102.481</ele>
        <time>2011-11-20T10:38:37Z</time>
      </trkpt>
      <trkpt lat="47.87784" lon="1.73411">
        <ele>105.779</ele>
        <time>2011-11-20T10:38:55Z</time>
      </trkpt>
      <trkpt lat="47.87726" lon="1.73503">
        <ele>107.87</ele>
        <time>2011-11-20T10:39:19Z</time>
      </trkpt>
      <trkpt lat="47.87652" lon="1.73612">
        <ele>106.615</ele>
        <time>2011-11-20T10:39:42Z</time>
      </trkpt>
      <trkpt lat="47.87597" lon="1.7368">
        <ele>103.331</ele>
        <time>2011-11-20T10:39:53Z</time>
      </trkpt>
      <trkpt lat="47.87503" lon="1.738">
        <ele>102.132</ele>
        <time>2011-11-20T10:40:13Z</time>
      </trkpt>
      <trkpt lat="47.87394" lon="1.73938">
        <ele>100.637</ele>
        <time>2011-11-20T10:40:37Z</time>
      </trkpt>
      <trkpt lat="47.87285" lon="1.74074">
        <ele>98.428</ele>
        <time>2011-11-20T10:41:00Z</time>
      </trkpt>
      <trkpt lat="47.87253" lon="1.74114">
        <ele>97.513</ele>
        <time>2011-11-20T10:41:11Z</time>
      </trkpt>
      <trkpt lat="47.87252" lon="1.74116">
        <ele>97.158</ele>
        <time>2011-11-20T10:41:24Z</time>
      </trkpt>
      <trkpt lat="47.87252" lon="1.74116">
        <ele>96.842</ele>
        <time>2011-11-20T10:42:12Z</time>
      </trkpt>
      <trkpt lat="47.87252" lon="1.74116">
        <ele>96.965</ele>
        <time>2011-11-20T10:42:39Z</time>
      </trkpt>
      <trkpt lat="47.87226" lon="1.74149">
        <ele>96.09</ele>
        <time>2011-11-20T10:42:53Z</time>
      </trkpt>
      <trkpt lat="47.87199" lon="1.74182">
        <ele>96.522</ele>
        <time>2011-11-20T10:43:01Z</time>
      </trkpt>
      <trkpt lat="47.87165" lon="1.74199">
        <ele>96</ele>
        <time>2011-11-20T10:43:09Z</time>
      </trkpt>
      <trkpt lat="47.87051" lon="1.74183">
        <ele>94.224</ele>
        <time>2011-11-20T10:43:32Z</time>
      </trkpt>
      <trkpt lat="47.86944" lon="1.74167">
        <ele>92.861</ele>
        <time>2011-11-20T10:43:52Z</time>
      </trkpt>
      <trkpt lat="47.86853" lon="1.74197">
        <ele>90.583</ele>
        <time>2011-11-20T10:44:08Z</time>
      </trkpt>
      <trkpt lat="47.86831" lon="1.74234">
        <ele>89.652</ele>
        <time>2011-11-20T10:44:14Z</time>
      </trkpt>
      <trkpt lat="47.86815" lon="1.74392">
        <ele>88.241</ele>
        <time>2011-11-20T10:44:31Z</time>
      </trkpt>
      <trkpt lat="47.86803" lon="1.74425">
        <ele>88.567</ele>
        <time>2011-11-20T10:44:35Z</time>
      </trkpt>
      <trkpt lat="47.86757" lon="1.74506">
        <ele>92.363</ele>
        <time>2011-11-20T10:44:51Z</time>
      </trkpt>
      <trkpt lat="47.86711" lon="1.74559">
        <ele>94.458</ele>
        <time>2011-11-20T10:45:07Z</time>
      </trkpt>
      <trkpt lat="47.86665" lon="1.7458">
        <ele>94.355</ele>
        <time>2011-11-20T10:45:18Z</time>
      </trkpt>
      <trkpt lat="47.86612" lon="1.74623">
        <ele>93.427</ele>
        <time>2011-11-20T10:45:33Z</time>
      </trkpt>
      <trkpt lat="47.86612" lon="1.74623">
        <ele>92.271</ele>
        <time>2011-11-20T10:45:37Z</time>
      </trkpt>
      <trkpt lat="47.86597" lon="1.74582">
        <ele>90.393</ele>
        <time>2011-11-20T10:45:42Z</time>
      </trkpt>
      <trkpt lat="47.86598" lon="1.74551">
        <ele>88.548</ele>
        <time>2011-11-20T10:45:48Z</time>
      </trkpt>
      <trkpt lat="47.86601" lon="1.74535">
        <ele>86.915</ele>
        <time>2011-11-20T10:45:51Z</time>
      </trkpt>
      <trkpt lat="47.86607" lon="1.74507">
        <ele>86.165</ele>
        <time>2011-11-20T10:45:56Z</time>
      </trkpt>
      <trkpt lat="47.86592" lon="1.74416">
        <ele>85.723</ele>
        <time>2011-11-20T10:46:11Z</time>
      </trkpt>
      <trkpt lat="47.86576" lon="1.74365">
        <ele>88.238</ele>
        <time>2011-11-20T10:46:21Z</time>
      </trkpt>
      <trkpt lat="47.86531" lon="1.74378">
        <ele>88.098</ele>
        <time>2011-11-20T10:46:33Z</time>
      </trkpt>
      <trkpt lat="47.86501" lon="1.74391">
        <ele>88.51</ele>
        <time>2011-11-20T10:46:40Z</time>
      </trkpt>
      <trkpt lat="47.86432" lon="1.74462">
        <ele>88.321</ele>
        <time>2011-11-20T10:46:57Z</time>
      </trkpt>
      <trkpt lat="47.86372" lon="1.74476">
        <ele>87.856</ele>
        <time>2011-11-20T10:47:08Z</time>
      </trkpt>
      <trkpt lat="47.86352" lon="1.74486">
        <ele>88.11</ele>
        <time>2011-11-20T10:47:12Z</time>
      </trkpt>
      <trkpt lat="47.86307" lon="1.74521">
        <ele>87.236</ele>
        <time>2011-11-20T10:47:22Z</time>
      </trkpt>
      <trkpt lat="47.86289" lon="1.74514">
        <ele>87.056</ele>
        <time>2011-11-20T10:47:27Z</time>
      </trkpt>
      <trkpt lat="47.86273" lon="1.74471">
        <ele>87.616</ele>
        <time>2011-11-20T10:47:37Z</time>
      </trkpt>
      <trkpt lat="47.86273" lon="1.74477">
        <ele>87.924</ele>
        <time>2011-11-20T10:47:41Z</time>
      </trkpt>
      <trkpt lat="47.86291" lon="1.7452">
        <ele>87.421</ele>
        <time>2011-11-20T10:47:52Z</time>
      </trkpt>
      <trkpt lat="47.86325" lon="1.74659">
        <ele>86.076</ele>
        <time>2011-11-20T10:48:11Z</time>
      </trkpt>
      <trkpt lat="47.86328" lon="1.74675">
        <ele>86.185</ele>
        <time>2011-11-20T10:48:14Z</time>
      </trkpt>
      <trkpt lat="47.8632" lon="1.74689">
        <ele>85.907</ele>
        <time>2011-11-20T10:48:18Z</time>
      </trkpt>
      <trkpt lat="47.86283" lon="1.74719">
        <ele>85.026</ele>
        <time>2011-11-20T10:48:28Z</time>
      </trkpt>
      <trkpt lat="47.86288" lon="1.74761">
        <ele>87.083</ele>
        <time>2011-11-20T10:48:37Z</time>
      </trkpt>
      <trkpt lat="47.86303" lon="1.74813">
        <ele>90.22</ele>
        <time>2011-11-20T10:48:48Z</time>
      </trkpt>
      <trkpt lat="47.86316" lon="1.74858">
        <ele>92.834</ele>
        <time>2011-11-20T10:49:03Z</time>
      </trkpt>
      <trkpt lat="47.86293" lon="1.74896">
        <ele>92.051</ele>
        <time>2011-11-20T10:49:14Z</time>
      </trkpt>
      <trkpt lat="47.86279" lon="1.74918">
        <ele>90.995</ele>
        <time>2011-11-20T10:49:18Z</time>
      </trkpt>
      <trkpt lat="47.86271" lon="1.7493">
        <ele>91.041</ele>
        <time>2011-11-20T10:49:20Z</time>
      </trkpt>
      <trkpt lat="47.8623" lon="1.74982">
        <ele>93.669</ele>
        <time>2011-11-20T10:49:32Z</time>
      </trkpt>
      <trkpt lat="47.86141" lon="1.75056">
        <ele>94.517</ele>
        <time>2011-11-20T10:49:53Z</time>
      </trkpt>
      <trkpt lat="47.86027" lon="1.75136">
        <ele>92.69</ele>
        <time>2011-11-20T10:50:15Z</time>
      </trkpt>
      <trkpt lat="47.85962" lon="1.75198">
        <ele>89.546</ele>
        <time>2011-11-20T10:50:27Z</time>
      </trkpt>
      <trkpt lat="47.85917" lon="1.75253">
        <ele>88.57</ele>
        <time>2011-11-20T10:50:36Z</time>
      </trkpt>
      <trkpt lat="47.85893" lon="1.75273">
        <ele>87.889</ele>
        <time>2011-11-20T10:50:41Z</time>
      </trkpt>
      <trkpt lat="47.85817" lon="1.7531">
        <ele>91.718</ele>
        <time>2011-11-20T10:50:55Z</time>
      </trkpt>
      <trkpt lat="47.85803" lon="1.75317">
        <ele>92.52</ele>
        <time>2011-11-20T10:50:58Z</time>
      </trkpt>
      <trkpt lat="47.85797" lon="1.75339">
        <ele>93.948</ele>
        <time>2011-11-20T10:51:03Z</time>
      </trkpt>
      <trkpt lat="47.85805" lon="1.75367">
        <ele>94.412</ele>
        <time>2011-11-20T10:51:15Z</time>
      </trkpt>
    </trkseg>
  </trk>
</gpx>